Time,TemperatureF,DewpointF,PressureIn,WindDirection,WindDirectionDegrees,WindSpeedMPH,WindSpeedGustMPH,Humidity,HourlyPrecipIn,Conditions,Clouds,dailyrainin,SoftwareType,DateUTC
2013-04-08 00:00:00,40.0,33.4,29.97,NNW,344,0.0,0.0,77,0.00,,---,0.00,VWS V14.00,2013-04-08 04:00:00,
2013-04-08 00:01:00,40.0,33.4,29.97,NNW,344,0.0,0.0,77,0.00,,---,0.00,VWS V14.00,2013-04-08 04:01:00,
2013-04-08 00:06:00,39.8,33.2,29.97,NNW,344,0.0,0.0,77,0.00,,---,0.00,VWS V14.00,2013-04-08 04:06:00,
2013-04-08 00:07:00,39.8,33.2,29.97,NNW,344,0.0,0.0,77,0.00,,---,0.00,VWS V14.00,2013-04-08 04:07:00,
2013-04-08 00:09:00,39.8,33.5,29.98,NNW,344,0.0,0.0,78,0.00,,---,0.00,VWS V14.00,2013-04-08 04:09:00,
2013-04-08 00:11:00,39.7,33.4,29.97,NNW,344,0.0,0.0,78,0.00,,---,0.00,VWS V14.00,2013-04-08 04:11:00,
2013-04-08 00:14:00,39.7,33.4,29.97,NNW,344,0.0,0.0,78,0.00,,---,0.00,VWS V14.00,2013-04-08 04:14:00,
2013-04-08 00:15:00,39.7,33.4,29.97,NNW,344,0.0,0.0,78,0.00,,---,0.00,VWS V14.00,2013-04-08 04:15:00,
2013-04-08 00:19:00,39.5,33.2,29.97,NNW,344,0.0,0.0,78,0.00,,---,0.00,VWS V14.00,2013-04-08 04:19:00,
2013-04-08 00:20:00,39.5,33.2,29.97,NNW,344,0.0,0.0,78,0.00,,---,0.00,VWS V14.00,2013-04-08 04:20:00,
2013-04-08 00:22:00,39.5,33.2,29.97,NNW,344,0.0,0.0,78,0.00,,---,0.00,VWS V14.00,2013-04-08 04:22:00,
2013-04-08 00:25:00,39.5,33.2,29.97,NNW,344,0.0,0.0,78,0.00,,---,0.00,VWS V14.00,2013-04-08 04:25:00,
2013-04-08 00:26:00,39.4,33.1,29.97,NNW,344,0.0,0.0,78,0.00,,---,0.00,VWS V14.00,2013-04-08 04:26:00,
2013-04-08 00:28:00,39.4,33.1,29.97,NNW,344,0.0,0.0,78,0.00,,---,0.00,VWS V14.00,2013-04-08 04:28:00,
2013-04-08 00:30:00,39.3,33.0,29.97,NNW,344,0.0,0.0,78,0.00,,---,0.00,VWS V14.00,2013-04-08 04:30:00,
2013-04-08 00:33:00,39.3,33.3,29.97,NNW,344,0.0,0.0,79,0.00,,---,0.00,VWS V14.00,2013-04-08 04:33:00,
2013-04-08 00:34:00,39.3,33.3,29.97,NNW,344,0.0,0.0,79,0.00,,---,0.00,VWS V14.00,2013-04-08 04:34:00,
2013-04-08 00:36:00,39.3,33.3,29.97,NNW,344,0.0,0.0,79,0.00,,---,0.00,VWS V14.00,2013-04-08 04:36:00,
2013-04-08 00:40:00,39.2,33.2,29.97,NNW,344,0.0,0.0,79,0.00,,---,0.00,VWS V14.00,2013-04-08 04:40:00,
2013-04-08 00:42:00,39.1,33.2,29.97,NNW,344,0.0,0.0,79,0.00,,---,0.00,VWS V14.00,2013-04-08 04:42:00,
2013-04-08 00:46:00,38.9,33.0,29.97,NNW,344,0.0,0.0,79,0.00,,---,0.00,VWS V14.00,2013-04-08 04:46:00,
2013-04-08 00:47:00,38.9,33.0,29.97,NNW,344,0.0,0.0,79,0.00,,---,0.00,VWS V14.00,2013-04-08 04:47:00,
2013-04-08 00:49:00,38.8,32.9,29.97,NNW,344,0.0,0.0,79,0.00,,---,0.00,VWS V14.00,2013-04-08 04:49:00,
2013-04-08 00:52:00,38.7,32.8,29.96,NNW,344,0.0,0.0,79,0.00,,---,0.00,VWS V14.00,2013-04-08 04:52:00,
2013-04-08 00:54:00,38.7,33.1,29.96,NNW,344,0.0,0.0,80,0.00,,---,0.00,VWS V14.00,2013-04-08 04:54:00,
2013-04-08 00:58:00,38.6,33.0,29.96,NNW,344,0.0,0.0,80,0.00,,---,0.00,VWS V14.00,2013-04-08 04:58:00,
2013-04-08 00:59:00,38.5,32.9,29.96,NNW,344,0.0,0.0,80,0.00,,---,0.00,VWS V14.00,2013-04-08 04:59:00,
2013-04-08 01:02:00,38.4,32.8,29.96,NNW,344,0.0,0.0,80,0.00,,---,0.00,VWS V14.00,2013-04-08 05:02:00,
2013-04-08 01:03:00,38.4,32.8,29.96,NNW,344,0.0,0.0,80,0.00,,---,0.00,VWS V14.00,2013-04-08 05:03:00,
2013-04-08 01:04:00,38.4,32.8,29.96,NNW,344,0.0,0.0,80,0.00,,---,0.00,VWS V14.00,2013-04-08 05:04:00,
2013-04-08 01:05:00,38.4,32.8,29.96,NNW,344,0.0,0.0,80,0.00,,---,0.00,VWS V14.00,2013-04-08 05:05:00,
2013-04-08 01:09:00,38.6,33.3,29.96,NNW,344,0.0,0.0,81,0.00,,---,0.00,VWS V14.00,2013-04-08 05:09:00,
2013-04-08 01:12:00,38.9,33.6,29.96,NNW,344,0.0,0.0,81,0.00,,---,0.00,VWS V14.00,2013-04-08 05:12:00,
2013-04-08 01:15:00,39.2,33.9,29.96,ENE,61,2.0,3.0,81,0.00,,---,0.00,VWS V14.00,2013-04-08 05:15:00,
2013-04-08 01:17:00,39.4,33.8,29.96,ENE,61,0.0,3.0,80,0.00,,---,0.00,VWS V14.00,2013-04-08 05:17:00,
2013-04-08 01:20:00,39.5,33.8,29.96,ENE,62,2.0,3.0,80,0.00,,---,0.00,VWS V14.00,2013-04-08 05:20:00,
2013-04-08 01:21:00,39.6,34.0,29.96,ENE,61,1.0,3.0,80,0.00,,---,0.00,VWS V14.00,2013-04-08 05:21:00,
2013-04-08 01:22:00,39.6,34.0,29.95,ENE,62,0.0,3.0,80,0.00,,---,0.00,VWS V14.00,2013-04-08 05:22:00,
2013-04-08 01:26:00,39.6,33.6,29.96,ENE,62,1.0,3.0,79,0.00,,---,0.00,VWS V14.00,2013-04-08 05:26:00,
2013-04-08 01:27:00,39.6,33.6,29.96,ENE,61,0.0,3.0,79,0.00,,---,0.00,VWS V14.00,2013-04-08 05:27:00,
2013-04-08 01:28:00,39.5,33.5,29.96,ENE,61,0.0,3.0,79,0.00,,---,0.00,VWS V14.00,2013-04-08 05:28:00,
2013-04-08 01:31:00,39.5,33.5,29.96,ENE,62,0.0,0.0,79,0.00,,---,0.00,VWS V14.00,2013-04-08 05:31:00,
2013-04-08 01:32:00,39.5,33.5,29.96,ENE,61,0.0,0.0,79,0.00,,---,0.00,VWS V14.00,2013-04-08 05:32:00,
2013-04-08 01:34:00,39.5,33.5,29.96,ENE,62,0.0,0.0,79,0.00,,---,0.00,VWS V14.00,2013-04-08 05:34:00,
2013-04-08 01:37:00,39.4,33.4,29.96,ENE,63,2.0,3.0,79,0.00,,---,0.00,VWS V14.00,2013-04-08 05:37:00,
2013-04-08 01:38:00,39.5,33.5,29.96,ENE,63,1.0,3.0,79,0.00,,---,0.00,VWS V14.00,2013-04-08 05:38:00,
2013-04-08 01:39:00,39.5,33.5,29.96,ENE,63,2.0,3.0,79,0.00,,---,0.00,VWS V14.00,2013-04-08 05:39:00,
2013-04-08 01:42:00,39.5,33.5,29.96,ENE,63,1.0,3.0,79,0.00,,---,0.00,VWS V14.00,2013-04-08 05:42:00,
2013-04-08 01:43:00,39.5,33.5,29.96,ENE,63,1.0,3.0,79,0.00,,---,0.00,VWS V14.00,2013-04-08 05:43:00,
2013-04-08 01:44:00,39.5,33.5,29.96,ENE,63,1.0,3.0,79,0.00,,---,0.00,VWS V14.00,2013-04-08 05:44:00,
2013-04-08 01:45:00,39.5,33.5,29.96,ENE,67,1.0,3.0,79,0.00,,---,0.00,VWS V14.00,2013-04-08 05:45:00,
2013-04-08 01:47:00,39.6,33.6,29.96,ENE,67,0.0,3.0,79,0.00,,---,0.00,VWS V14.00,2013-04-08 05:47:00,
2013-04-08 01:48:00,39.6,33.6,29.95,ENE,67,1.0,3.0,79,0.00,,---,0.00,VWS V14.00,2013-04-08 05:48:00,
2013-04-08 01:50:00,39.6,33.6,29.95,ENE,67,2.0,3.0,79,0.00,,---,0.00,VWS V14.00,2013-04-08 05:50:00,
2013-04-08 01:51:00,39.6,33.6,29.95,East,84,4.0,4.0,79,0.00,,---,0.00,VWS V14.00,2013-04-08 05:51:00,
2013-04-08 01:52:00,39.7,33.7,29.95,East,84,1.0,4.0,79,0.00,,---,0.00,VWS V14.00,2013-04-08 05:52:00,
2013-04-08 01:55:00,39.7,33.4,29.95,East,86,2.0,4.0,78,0.00,,---,0.00,VWS V14.00,2013-04-08 05:55:00,
2013-04-08 01:56:00,39.7,33.4,29.95,East,86,1.0,4.0,78,0.00,,---,0.00,VWS V14.00,2013-04-08 05:56:00,
2013-04-08 01:58:00,39.7,33.4,29.95,East,86,1.0,4.0,78,0.00,,---,0.00,VWS V14.00,2013-04-08 05:58:00,
2013-04-08 02:00:00,39.7,33.4,29.95,East,86,2.0,3.0,78,0.00,,---,0.00,VWS V14.00,2013-04-08 06:00:00,
2013-04-08 02:01:00,39.7,33.4,29.95,East,86,1.0,3.0,78,0.00,,---,0.00,VWS V14.00,2013-04-08 06:01:00,
2013-04-08 02:03:00,39.7,33.4,29.95,East,88,1.0,3.0,78,0.00,,---,0.00,VWS V14.00,2013-04-08 06:03:00,
2013-04-08 02:05:00,39.7,33.4,29.95,East,88,2.0,3.0,78,0.00,,---,0.00,VWS V14.00,2013-04-08 06:05:00,
2013-04-08 02:06:00,39.7,33.4,29.95,East,88,1.0,3.0,78,0.00,,---,0.00,VWS V14.00,2013-04-08 06:06:00,
2013-04-08 02:10:00,39.7,33.4,29.95,East,88,0.0,3.0,78,0.00,,---,0.00,VWS V14.00,2013-04-08 06:10:00,
2013-04-08 02:11:00,39.7,33.4,29.95,East,88,0.0,3.0,78,0.00,,---,0.00,VWS V14.00,2013-04-08 06:11:00,
2013-04-08 02:12:00,39.7,33.4,29.95,East,88,0.0,3.0,78,0.00,,---,0.00,VWS V14.00,2013-04-08 06:12:00,
2013-04-08 02:14:00,39.7,33.4,29.96,East,101,0.0,3.0,78,0.00,,---,0.00,VWS V14.00,2013-04-08 06:14:00,
2013-04-08 02:17:00,39.7,33.4,29.96,ESE,111,0.0,3.0,78,0.00,,---,0.00,VWS V14.00,2013-04-08 06:17:00,
2013-04-08 02:19:00,39.7,33.4,29.95,ESE,111,0.0,3.0,78,0.00,,---,0.00,VWS V14.00,2013-04-08 06:19:00,
2013-04-08 02:22:00,39.7,33.4,29.95,ESE,111,0.0,3.0,78,0.00,,---,0.00,VWS V14.00,2013-04-08 06:22:00,
2013-04-08 02:26:00,39.6,33.3,29.95,ESE,111,0.0,3.0,78,0.00,,---,0.00,VWS V14.00,2013-04-08 06:26:00,
2013-04-08 02:28:00,39.5,33.2,29.96,ESE,111,0.0,3.0,78,0.00,,---,0.00,VWS V14.00,2013-04-08 06:28:00,
2013-04-08 02:31:00,39.5,33.5,29.95,ESE,111,0.0,0.0,79,0.00,,---,0.00,VWS V14.00,2013-04-08 06:31:00,
2013-04-08 02:33:00,39.5,33.5,29.95,ESE,111,0.0,0.0,79,0.00,,---,0.00,VWS V14.00,2013-04-08 06:33:00,
2013-04-08 02:38:00,39.4,33.4,29.96,ESE,111,0.0,0.0,79,0.00,,---,0.00,VWS V14.00,2013-04-08 06:38:00,
2013-04-08 02:39:00,39.4,33.4,29.96,ESE,111,0.0,0.0,79,0.00,,---,0.00,VWS V14.00,2013-04-08 06:39:00,
2013-04-08 02:41:00,39.3,33.3,29.96,ESE,111,0.0,0.0,79,0.00,,---,0.00,VWS V14.00,2013-04-08 06:41:00,
2013-04-08 02:43:00,39.3,33.3,29.96,ESE,111,0.0,0.0,79,0.00,,---,0.00,VWS V14.00,2013-04-08 06:43:00,
2013-04-08 02:44:00,39.3,33.3,29.95,ESE,111,0.0,0.0,79,0.00,,---,0.00,VWS V14.00,2013-04-08 06:44:00,
2013-04-08 02:45:00,39.3,33.3,29.95,ESE,111,0.0,0.0,79,0.00,,---,0.00,VWS V14.00,2013-04-08 06:45:00,
2013-04-08 02:46:00,39.3,33.3,29.95,ESE,111,0.0,0.0,79,0.00,,---,0.00,VWS V14.00,2013-04-08 06:46:00,
2013-04-08 02:49:00,39.3,33.3,29.95,ESE,111,1.0,4.0,79,0.00,,---,0.00,VWS V14.00,2013-04-08 06:49:00,
2013-04-08 02:51:00,39.3,33.3,29.95,ESE,112,1.0,4.0,79,0.00,,---,0.00,VWS V14.00,2013-04-08 06:51:00,
2013-04-08 02:52:00,39.3,33.3,29.95,ESE,111,1.0,4.0,79,0.00,,---,0.00,VWS V14.00,2013-04-08 06:52:00,
2013-04-08 02:53:00,39.3,33.3,29.95,ESE,112,1.0,4.0,79,0.00,,---,0.00,VWS V14.00,2013-04-08 06:53:00,
2013-04-08 02:56:00,39.3,33.3,29.94,SE,136,4.0,5.0,79,0.00,,---,0.00,VWS V14.00,2013-04-08 06:56:00,
2013-04-08 02:58:00,39.4,33.4,29.94,SE,136,3.0,6.0,79,0.00,,---,0.00,VWS V14.00,2013-04-08 06:58:00,
2013-04-08 02:59:00,39.4,33.4,29.94,SE,136,2.0,3.0,79,0.00,,---,0.00,VWS V14.00,2013-04-08 06:59:00,
2013-04-08 03:02:00,39.5,33.5,29.93,SE,136,0.0,3.0,79,0.00,,---,0.00,VWS V14.00,2013-04-08 07:02:00,
2013-04-08 03:05:00,39.5,33.5,29.93,SE,135,0.0,3.0,79,0.00,,---,0.00,VWS V14.00,2013-04-08 07:05:00,
2013-04-08 03:06:00,39.5,33.5,29.93,SE,134,2.0,3.0,79,0.00,,---,0.00,VWS V14.00,2013-04-08 07:06:00,
2013-04-08 03:07:00,39.5,33.5,29.94,SE,134,1.0,3.0,79,0.00,,---,0.00,VWS V14.00,2013-04-08 07:07:00,
2013-04-08 03:11:00,39.4,33.4,29.94,SE,134,3.0,3.0,79,0.00,,---,0.00,VWS V14.00,2013-04-08 07:11:00,
2013-04-08 03:12:00,39.4,33.4,29.94,SE,134,2.0,4.0,79,0.00,,---,0.00,VWS V14.00,2013-04-08 07:12:00,
2013-04-08 03:13:00,39.4,33.4,29.94,SE,135,3.0,5.0,79,0.00,,---,0.00,VWS V14.00,2013-04-08 07:13:00,
2013-04-08 03:17:00,39.6,33.6,29.94,SE,140,3.0,6.0,79,0.00,,---,0.00,VWS V14.00,2013-04-08 07:17:00,
2013-04-08 03:19:00,39.6,33.6,29.94,SE,140,4.0,6.0,79,0.00,,---,0.00,VWS V14.00,2013-04-08 07:19:00,
2013-04-08 03:20:00,39.7,33.7,29.94,SE,140,2.0,6.0,79,0.00,,---,0.00,VWS V14.00,2013-04-08 07:20:00,
2013-04-08 03:22:00,39.7,33.7,29.94,SE,140,3.0,6.0,79,0.00,,---,0.00,VWS V14.00,2013-04-08 07:22:00,
2013-04-08 03:24:00,39.7,33.7,29.94,SE,141,3.0,7.0,79,0.00,,---,0.00,VWS V14.00,2013-04-08 07:24:00,
2013-04-08 03:25:00,39.7,33.7,29.94,SE,142,1.0,7.0,79,0.00,,---,0.00,VWS V14.00,2013-04-08 07:25:00,
2013-04-08 03:27:00,39.7,33.7,29.93,SE,141,2.0,7.0,79,0.00,,---,0.00,VWS V14.00,2013-04-08 07:27:00,
2013-04-08 03:28:00,39.7,33.7,29.93,SE,141,3.0,7.0,79,0.00,,---,0.00,VWS V14.00,2013-04-08 07:28:00,
2013-04-08 03:29:00,39.7,33.7,29.93,SE,138,3.0,6.0,79,0.00,,---,0.00,VWS V14.00,2013-04-08 07:29:00,
2013-04-08 03:31:00,39.7,33.7,29.93,SE,146,3.0,6.0,79,0.00,,---,0.00,VWS V14.00,2013-04-08 07:31:00,
2013-04-08 03:33:00,39.7,33.7,29.94,SE,146,4.0,6.0,79,0.00,,---,0.00,VWS V14.00,2013-04-08 07:33:00,
2013-04-08 03:34:00,39.8,33.8,29.94,SSE,147,3.0,6.0,79,0.00,,---,0.00,VWS V14.00,2013-04-08 07:34:00,
2013-04-08 03:37:00,39.8,33.8,29.94,SE,144,3.0,6.0,79,0.00,,---,0.00,VWS V14.00,2013-04-08 07:37:00,
2013-04-08 03:39:00,39.8,33.8,29.94,SE,142,2.0,6.0,79,0.00,,---,0.00,VWS V14.00,2013-04-08 07:39:00,
2013-04-08 03:42:00,39.9,34.2,29.93,SSE,147,5.0,7.0,80,0.00,,---,0.00,VWS V14.00,2013-04-08 07:42:00,
2013-04-08 03:44:00,39.9,34.2,29.93,SSE,148,5.0,7.0,80,0.00,,---,0.00,VWS V14.00,2013-04-08 07:44:00,
2013-04-08 03:48:00,39.9,34.2,29.93,SE,144,2.0,7.0,80,0.00,,---,0.00,VWS V14.00,2013-04-08 07:48:00,
2013-04-08 03:50:00,39.9,33.9,29.93,SE,144,1.0,7.0,79,0.00,,---,0.00,VWS V14.00,2013-04-08 07:50:00,
2013-04-08 03:51:00,39.8,33.8,29.93,SE,142,3.0,7.0,79,0.00,,---,0.00,VWS V14.00,2013-04-08 07:51:00,
2013-04-08 03:53:00,39.8,33.8,29.93,SE,141,2.0,7.0,79,0.00,,---,0.00,VWS V14.00,2013-04-08 07:53:00,
2013-04-08 03:54:00,39.8,33.8,29.93,SE,141,4.0,7.0,79,0.00,,---,0.00,VWS V14.00,2013-04-08 07:54:00,
2013-04-08 03:56:00,39.8,33.8,29.93,SE,141,3.0,7.0,79,0.00,,---,0.00,VWS V14.00,2013-04-08 07:56:00,
2013-04-08 03:57:00,39.8,34.1,29.93,SE,141,4.0,7.0,80,0.00,,---,0.00,VWS V14.00,2013-04-08 07:57:00,
2013-04-08 03:58:00,39.9,33.9,29.93,SE,141,3.0,3.0,79,0.00,,---,0.00,VWS V14.00,2013-04-08 07:58:00,
2013-04-08 04:04:00,39.9,33.9,29.92,SE,140,2.0,7.0,79,0.00,,---,0.00,VWS V14.00,2013-04-08 08:04:00,
2013-04-08 04:05:00,39.9,33.9,29.92,SE,140,4.0,7.0,79,0.00,,---,0.00,VWS V14.00,2013-04-08 08:05:00,
2013-04-08 04:09:00,40.0,34.0,29.92,SE,140,5.0,7.0,79,0.00,,---,0.00,VWS V14.00,2013-04-08 08:09:00,
2013-04-08 04:11:00,40.0,34.0,29.92,SE,142,6.0,7.0,79,0.00,,---,0.00,VWS V14.00,2013-04-08 08:11:00,
2013-04-08 04:12:00,40.0,34.0,29.92,SE,144,3.0,7.0,79,0.00,,---,0.00,VWS V14.00,2013-04-08 08:12:00,
2013-04-08 04:14:00,39.9,33.9,29.92,SE,140,5.0,7.0,79,0.00,,---,0.00,VWS V14.00,2013-04-08 08:14:00,
2013-04-08 04:15:00,39.9,33.9,29.92,SE,141,5.0,7.0,79,0.00,,---,0.00,VWS V14.00,2013-04-08 08:15:00,
2013-04-08 04:16:00,39.9,33.9,29.92,SE,143,4.0,7.0,79,0.00,,---,0.00,VWS V14.00,2013-04-08 08:16:00,
2013-04-08 04:20:00,40.0,34.3,29.92,SSE,149,4.0,7.0,80,0.00,,---,0.00,VWS V14.00,2013-04-08 08:20:00,
2013-04-08 04:21:00,40.1,34.4,29.93,SSE,157,3.0,7.0,80,0.00,,---,0.00,VWS V14.00,2013-04-08 08:21:00,
2013-04-08 04:25:00,40.4,35.0,29.92,SSE,155,3.0,7.0,81,0.00,,---,0.00,VWS V14.00,2013-04-08 08:25:00,
2013-04-08 04:26:00,40.4,35.0,29.92,SSE,156,2.0,9.0,81,0.00,,---,0.00,VWS V14.00,2013-04-08 08:26:00,
2013-04-08 04:27:00,40.4,35.0,29.92,SSE,148,3.0,9.0,81,0.00,,---,0.00,VWS V14.00,2013-04-08 08:27:00,
2013-04-08 04:29:00,40.2,34.5,29.92,SE,141,2.0,5.0,80,0.00,,---,0.00,VWS V14.00,2013-04-08 08:29:00,
2013-04-08 04:32:00,40.1,34.4,29.92,SSE,155,3.0,8.0,80,0.00,,---,0.00,VWS V14.00,2013-04-08 08:32:00,
2013-04-08 04:34:00,40.0,34.3,29.92,SSE,147,4.0,8.0,80,0.00,,---,0.00,VWS V14.00,2013-04-08 08:34:00,
2013-04-08 04:35:00,40.0,34.3,29.92,SSE,147,4.0,8.0,80,0.00,,---,0.00,VWS V14.00,2013-04-08 08:35:00,
2013-04-08 04:38:00,40.1,34.4,29.92,SE,144,3.0,8.0,80,0.00,,---,0.00,VWS V14.00,2013-04-08 08:38:00,
2013-04-08 04:40:00,40.1,34.4,29.92,SE,140,5.0,9.0,80,0.00,,---,0.00,VWS V14.00,2013-04-08 08:40:00,
2013-04-08 04:42:00,40.0,34.3,29.92,SE,140,4.0,9.0,80,0.00,,---,0.00,VWS V14.00,2013-04-08 08:42:00,
2013-04-08 04:44:00,40.0,34.0,29.91,SE,146,3.0,9.0,79,0.00,,---,0.00,VWS V14.00,2013-04-08 08:44:00,
2013-04-08 04:45:00,40.0,34.3,29.91,SSE,150,5.0,9.0,80,0.00,,---,0.00,VWS V14.00,2013-04-08 08:45:00,
2013-04-08 04:47:00,40.0,34.3,29.91,SSE,157,6.0,9.0,80,0.00,,---,0.00,VWS V14.00,2013-04-08 08:47:00,
2013-04-08 04:49:00,40.0,34.3,29.91,SE,146,5.0,9.0,80,0.00,,---,0.00,VWS V14.00,2013-04-08 08:49:00,
2013-04-08 04:51:00,40.2,34.5,29.91,SSE,150,6.0,9.0,80,0.00,,---,0.00,VWS V14.00,2013-04-08 08:51:00,
2013-04-08 04:53:00,40.3,34.6,29.91,SE,144,5.0,9.0,80,0.00,,---,0.00,VWS V14.00,2013-04-08 08:53:00,
2013-04-08 04:55:00,40.2,34.5,29.91,SE,142,5.0,9.0,80,0.00,,---,0.00,VWS V14.00,2013-04-08 08:55:00,
2013-04-08 04:56:00,40.2,34.5,29.91,SSE,149,5.0,9.0,80,0.00,,---,0.00,VWS V14.00,2013-04-08 08:56:00,
2013-04-08 04:58:00,40.2,34.5,29.91,SE,144,3.0,9.0,80,0.00,,---,0.00,VWS V14.00,2013-04-08 08:58:00,
2013-04-08 05:02:00,40.3,34.9,29.91,SSE,163,1.0,7.0,81,0.00,,---,0.00,VWS V14.00,2013-04-08 09:02:00,
2013-04-08 05:03:00,40.4,35.0,29.91,SSE,161,3.0,7.0,81,0.00,,---,0.00,VWS V14.00,2013-04-08 09:03:00,
2013-04-08 05:05:00,40.3,34.9,29.91,SE,142,3.0,7.0,81,0.00,,---,0.00,VWS V14.00,2013-04-08 09:05:00,
2013-04-08 05:07:00,40.3,34.6,29.90,SE,133,3.0,7.0,80,0.00,,---,0.00,VWS V14.00,2013-04-08 09:07:00,
2013-04-08 05:09:00,40.3,34.6,29.90,SE,136,4.0,7.0,80,0.00,,---,0.00,VWS V14.00,2013-04-08 09:09:00,
2013-04-08 05:10:00,40.3,34.6,29.90,SE,141,6.0,8.0,80,0.00,,---,0.00,VWS V14.00,2013-04-08 09:10:00,
2013-04-08 05:12:00,40.4,34.7,29.90,SSE,150,3.0,11.0,80,0.00,,---,0.00,VWS V14.00,2013-04-08 09:12:00,
2013-04-08 05:14:00,40.4,34.7,29.89,SSE,154,4.0,11.0,80,0.00,,---,0.00,VWS V14.00,2013-04-08 09:14:00,
2013-04-08 05:16:00,40.5,34.8,29.90,SE,131,4.0,11.0,80,0.00,,---,0.00,VWS V14.00,2013-04-08 09:16:00,
2013-04-08 05:17:00,40.6,34.9,29.89,SSE,155,3.0,11.0,80,0.00,,---,0.00,VWS V14.00,2013-04-08 09:17:00,
2013-04-08 05:18:00,40.6,34.9,29.89,SSE,154,9.0,11.0,80,0.00,,---,0.00,VWS V14.00,2013-04-08 09:18:00,
2013-04-08 05:21:00,40.8,35.4,29.90,SSE,150,4.0,11.0,81,0.00,,---,0.00,VWS V14.00,2013-04-08 09:21:00,
2013-04-08 05:22:00,40.7,35.0,29.89,SSE,153,4.0,11.0,80,0.00,,---,0.00,VWS V14.00,2013-04-08 09:22:00,
2013-04-08 05:24:00,40.8,35.1,29.89,SSE,156,3.0,11.0,80,0.00,,---,0.00,VWS V14.00,2013-04-08 09:24:00,
2013-04-08 05:26:00,40.9,35.2,29.90,SSE,164,4.0,12.0,80,0.00,,---,0.00,VWS V14.00,2013-04-08 09:26:00,
2013-04-08 05:28:00,41.0,35.6,29.89,SSE,159,5.0,12.0,81,0.00,,---,0.00,VWS V14.00,2013-04-08 09:28:00,
2013-04-08 05:30:00,41.1,35.7,29.89,SSE,150,6.0,7.0,81,0.00,,---,0.00,VWS V14.00,2013-04-08 09:30:00,
2013-04-08 05:33:00,41.3,36.2,29.89,SSE,148,2.0,9.0,82,0.00,,---,0.00,VWS V14.00,2013-04-08 09:33:00,
2013-04-08 05:35:00,41.3,36.2,29.89,SSE,160,4.0,9.0,82,0.00,,---,0.00,VWS V14.00,2013-04-08 09:35:00,
2013-04-08 05:38:00,41.4,36.3,29.90,SE,136,5.0,9.0,82,0.00,,---,0.00,VWS V14.00,2013-04-08 09:38:00,
2013-04-08 05:40:00,41.3,35.9,29.89,SE,138,6.0,9.0,81,0.00,,---,0.00,VWS V14.00,2013-04-08 09:40:00,
2013-04-08 05:43:00,41.1,35.4,29.89,SSE,150,5.0,9.0,80,0.00,,---,0.00,VWS V14.00,2013-04-08 09:43:00,
2013-04-08 05:46:00,41.1,35.4,29.89,SSE,156,4.0,9.0,80,0.00,,---,0.00,VWS V14.00,2013-04-08 09:46:00,
2013-04-08 05:47:00,41.1,35.7,29.89,SSE,154,3.0,9.0,81,0.00,,---,0.00,VWS V14.00,2013-04-08 09:47:00,
2013-04-08 05:48:00,41.1,35.7,29.89,SSE,155,6.0,9.0,81,0.00,,---,0.00,VWS V14.00,2013-04-08 09:48:00,
2013-04-08 05:49:00,41.1,35.7,29.89,SSE,155,5.0,9.0,81,0.00,,---,0.00,VWS V14.00,2013-04-08 09:49:00,
2013-04-08 05:53:00,41.1,35.4,29.88,SE,140,3.0,10.0,80,0.00,,---,0.00,VWS V14.00,2013-04-08 09:53:00,
2013-04-08 05:54:00,41.1,35.4,29.89,SE,140,4.0,10.0,80,0.00,,---,0.00,VWS V14.00,2013-04-08 09:54:00,
2013-04-08 05:55:00,41.1,35.4,29.89,SE,140,4.0,10.0,80,0.00,,---,0.00,VWS V14.00,2013-04-08 09:55:00,
2013-04-08 05:58:00,41.3,35.9,29.88,SE,145,4.0,10.0,81,0.00,,---,0.00,VWS V14.00,2013-04-08 09:58:00,
2013-04-08 06:00:00,41.3,35.9,29.88,SSE,152,4.0,9.0,81,0.00,,---,0.00,VWS V14.00,2013-04-08 10:00:00,
2013-04-08 06:01:00,41.3,35.9,29.88,South,170,3.0,9.0,81,0.00,,---,0.00,VWS V14.00,2013-04-08 10:01:00,
2013-04-08 06:04:00,41.2,35.5,29.87,SE,138,7.0,10.0,80,0.00,,---,0.00,VWS V14.00,2013-04-08 10:04:00,
2013-04-08 06:05:00,41.2,35.5,29.88,SE,143,5.0,10.0,80,0.00,,---,0.00,VWS V14.00,2013-04-08 10:05:00,
2013-04-08 06:06:00,41.1,35.4,29.88,SSE,150,7.0,10.0,80,0.00,,---,0.00,VWS V14.00,2013-04-08 10:06:00,
2013-04-08 06:10:00,41.3,35.9,29.87,SSE,154,2.0,11.0,81,0.00,,---,0.00,VWS V14.00,2013-04-08 10:10:00,
2013-04-08 06:11:00,41.2,35.5,29.87,SE,145,4.0,11.0,80,0.00,,---,0.00,VWS V14.00,2013-04-08 10:11:00,
2013-04-08 06:12:00,41.2,35.5,29.87,SE,146,6.0,11.0,80,0.00,,---,0.00,VWS V14.00,2013-04-08 10:12:00,
2013-04-08 06:13:00,41.2,35.5,29.87,SE,142,6.0,11.0,80,0.00,,---,0.00,VWS V14.00,2013-04-08 10:13:00,
2013-04-08 06:16:00,41.2,35.5,29.86,SSE,150,5.0,11.0,80,0.00,,---,0.00,VWS V14.00,2013-04-08 10:16:00,
2013-04-08 06:17:00,41.2,35.5,29.86,SE,140,4.0,11.0,80,0.00,,---,0.00,VWS V14.00,2013-04-08 10:17:00,
2013-04-08 06:18:00,41.2,35.5,29.86,SE,126,3.0,11.0,80,0.00,,---,0.00,VWS V14.00,2013-04-08 10:18:00,
2013-04-08 06:20:00,41.2,35.5,29.86,SE,128,4.0,11.0,80,0.00,,---,0.00,VWS V14.00,2013-04-08 10:20:00,
2013-04-08 06:23:00,41.3,35.6,29.86,SSE,148,2.0,11.0,80,0.00,,---,0.00,VWS V14.00,2013-04-08 10:23:00,
2013-04-08 06:24:00,41.3,35.6,29.86,SE,140,3.0,11.0,80,0.00,,---,0.00,VWS V14.00,2013-04-08 10:24:00,
2013-04-08 06:25:00,41.3,35.6,29.85,SE,138,3.0,11.0,80,0.00,,---,0.00,VWS V14.00,2013-04-08 10:25:00,
2013-04-08 06:29:00,41.4,35.7,29.86,SE,129,4.0,6.0,80,0.00,,---,0.00,VWS V14.00,2013-04-08 10:29:00,
2013-04-08 06:30:00,41.4,35.7,29.85,SSE,157,6.0,8.0,80,0.00,,---,0.00,VWS V14.00,2013-04-08 10:30:00,
2013-04-08 06:32:00,41.5,35.8,29.85,SE,144,6.0,8.0,80,0.00,,---,0.00,VWS V14.00,2013-04-08 10:32:00,
2013-04-08 06:34:00,41.5,35.8,29.85,SSE,166,5.0,9.0,80,0.00,,---,0.00,VWS V14.00,2013-04-08 10:34:00,
2013-04-08 06:37:00,41.7,36.3,29.86,SSE,161,2.0,11.0,81,0.00,,---,0.00,VWS V14.00,2013-04-08 10:37:00,
2013-04-08 06:39:00,41.8,36.4,29.86,SSE,166,6.0,11.0,81,0.00,,---,0.00,VWS V14.00,2013-04-08 10:39:00,
2013-04-08 06:42:00,42.0,36.9,29.86,SSE,155,5.0,11.0,82,0.00,,---,0.00,VWS V14.00,2013-04-08 10:42:00,
2013-04-08 06:43:00,42.1,37.0,29.86,SSE,155,4.0,11.0,82,0.00,,---,0.00,VWS V14.00,2013-04-08 10:43:00,
2013-04-08 06:44:00,42.1,37.0,29.86,SSE,155,1.0,11.0,82,0.00,,---,0.00,VWS V14.00,2013-04-08 10:44:00,
2013-04-08 06:48:00,42.2,37.4,29.86,SSE,156,4.0,11.0,83,0.00,,---,0.00,VWS V14.00,2013-04-08 10:48:00,
2013-04-08 06:50:00,42.1,37.0,29.86,SSE,155,9.0,12.0,82,0.00,,---,0.00,VWS V14.00,2013-04-08 10:50:00,
2013-04-08 06:53:00,42.2,37.4,29.86,SSE,157,5.0,12.0,83,0.00,,---,0.00,VWS V14.00,2013-04-08 10:53:00,
2013-04-08 06:58:00,41.8,36.4,29.85,SE,140,5.0,12.0,81,0.00,,---,0.00,VWS V14.00,2013-04-08 10:58:00,
2013-04-08 06:59:00,41.8,36.1,29.86,SSE,150,9.0,10.0,80,0.00,,---,0.00,VWS V14.00,2013-04-08 10:59:00,
2013-04-08 07:00:00,41.8,36.1,29.86,SSE,159,3.0,10.0,80,0.00,,---,0.00,VWS V14.00,2013-04-08 11:00:00,
2013-04-08 07:01:00,41.8,36.4,29.86,SSE,157,5.0,10.0,81,0.00,,---,0.00,VWS V14.00,2013-04-08 11:01:00,
2013-04-08 07:04:00,41.9,36.8,29.85,SE,144,9.0,10.0,82,0.00,,---,0.00,VWS V14.00,2013-04-08 11:04:00,
2013-04-08 07:05:00,41.9,36.8,29.85,SSE,161,6.0,10.0,82,0.00,,---,0.00,VWS V14.00,2013-04-08 11:05:00,
2013-04-08 07:07:00,41.9,36.5,29.86,SE,137,4.0,10.0,81,0.00,,---,0.00,VWS V14.00,2013-04-08 11:07:00,
2013-04-08 07:08:00,41.9,36.5,29.86,SE,144,5.0,10.0,81,0.00,,---,0.00,VWS V14.00,2013-04-08 11:08:00,
2013-04-08 07:10:00,41.8,36.1,29.86,SE,144,8.0,10.0,80,0.00,,---,0.00,VWS V14.00,2013-04-08 11:10:00,
2013-04-08 07:12:00,41.8,36.1,29.86,SE,144,3.0,10.0,80,0.00,,---,0.00,VWS V14.00,2013-04-08 11:12:00,
2013-04-08 07:13:00,41.8,36.1,29.86,SE,142,9.0,10.0,80,0.00,,---,0.00,VWS V14.00,2013-04-08 11:13:00,
2013-04-08 07:14:00,41.8,36.1,29.85,SE,134,3.0,10.0,80,0.00,,---,0.00,VWS V14.00,2013-04-08 11:14:00,
2013-04-08 07:16:00,41.8,36.1,29.85,SE,142,5.0,10.0,80,0.00,,---,0.00,VWS V14.00,2013-04-08 11:16:00,
2013-04-08 07:18:00,41.8,36.4,29.85,SSE,157,4.0,10.0,81,0.00,,---,0.00,VWS V14.00,2013-04-08 11:18:00,
2013-04-08 07:20:00,42.0,36.6,29.85,SSE,154,5.0,10.0,81,0.00,,---,0.00,VWS V14.00,2013-04-08 11:20:00,
2013-04-08 07:22:00,42.0,36.6,29.86,SSE,156,4.0,10.0,81,0.00,,---,0.00,VWS V14.00,2013-04-08 11:22:00,
2013-04-08 07:23:00,42.2,37.1,29.86,SSE,163,5.0,10.0,82,0.00,,---,0.00,VWS V14.00,2013-04-08 11:23:00,
2013-04-08 07:24:00,42.2,37.1,29.86,SSE,164,1.0,10.0,82,0.00,,---,0.00,VWS V14.00,2013-04-08 11:24:00,
2013-04-08 07:26:00,42.3,37.2,29.86,SSE,153,4.0,10.0,82,0.00,,---,0.00,VWS V14.00,2013-04-08 11:26:00,
2013-04-08 07:28:00,42.4,37.3,29.86,SSE,152,5.0,11.0,82,0.00,,---,0.00,VWS V14.00,2013-04-08 11:28:00,
2013-04-08 07:30:00,42.3,36.9,29.86,SSE,150,5.0,8.0,81,0.00,,---,0.00,VWS V14.00,2013-04-08 11:30:00,
2013-04-08 07:31:00,42.4,37.0,29.85,SSE,157,5.0,11.0,81,0.00,,---,0.00,VWS V14.00,2013-04-08 11:31:00,
2013-04-08 07:33:00,42.4,37.0,29.85,SSE,157,6.0,11.0,81,0.00,,---,0.00,VWS V14.00,2013-04-08 11:33:00,
2013-04-08 07:35:00,42.5,37.1,29.86,SSE,160,5.0,11.0,81,0.00,,---,0.00,VWS V14.00,2013-04-08 11:35:00,
2013-04-08 07:36:00,42.4,37.0,29.85,SSE,147,9.0,11.0,81,0.00,,---,0.00,VWS V14.00,2013-04-08 11:36:00,
2013-04-08 07:38:00,42.5,37.1,29.85,SE,140,3.0,11.0,81,0.00,,---,0.00,VWS V14.00,2013-04-08 11:38:00,
2013-04-08 07:41:00,42.4,37.0,29.85,SE,145,4.0,11.0,81,0.00,,---,0.00,VWS V14.00,2013-04-08 11:41:00,
2013-04-08 07:43:00,42.5,37.1,29.86,SSE,155,8.0,11.0,81,0.00,,---,0.00,VWS V14.00,2013-04-08 11:43:00,
2013-04-08 07:44:00,42.6,37.2,29.86,SSE,153,3.0,11.0,81,0.00,,---,0.00,VWS V14.00,2013-04-08 11:44:00,
2013-04-08 07:46:00,42.7,37.6,29.86,SSE,156,8.0,11.0,82,0.00,,---,0.00,VWS V14.00,2013-04-08 11:46:00,
2013-04-08 07:48:00,42.8,37.7,29.86,SSE,167,6.0,11.0,82,0.00,,---,0.00,VWS V14.00,2013-04-08 11:48:00,
2013-04-08 07:49:00,42.8,37.7,29.86,SSE,161,4.0,11.0,82,0.00,,---,0.00,VWS V14.00,2013-04-08 11:49:00,
2013-04-08 07:53:00,42.9,37.8,29.86,SSE,160,8.0,11.0,82,0.00,,---,0.00,VWS V14.00,2013-04-08 11:53:00,
2013-04-08 07:54:00,42.9,37.5,29.86,SSE,157,2.0,11.0,81,0.00,,---,0.00,VWS V14.00,2013-04-08 11:54:00,
2013-04-08 07:56:00,42.9,37.5,29.86,SSE,151,4.0,11.0,81,0.00,,---,0.00,VWS V14.00,2013-04-08 11:56:00,
2013-04-08 08:00:00,43.2,38.1,29.86,SSE,159,4.0,10.0,82,0.00,,---,0.00,VWS V14.00,2013-04-08 12:00:00,
2013-04-08 08:02:00,43.2,37.8,29.86,SSE,163,5.0,10.0,81,0.00,,---,0.00,VWS V14.00,2013-04-08 12:02:00,
2013-04-08 08:04:00,43.2,38.1,29.85,SSE,155,4.0,10.0,82,0.00,,---,0.00,VWS V14.00,2013-04-08 12:04:00,
2013-04-08 08:05:00,43.3,38.2,29.85,SSE,153,3.0,10.0,82,0.00,,---,0.00,VWS V14.00,2013-04-08 12:05:00,
2013-04-08 08:06:00,43.2,37.8,29.86,SSE,148,4.0,10.0,81,0.00,,---,0.00,VWS V14.00,2013-04-08 12:06:00,
2013-04-08 08:07:00,43.3,38.2,29.85,SSE,167,4.0,10.0,82,0.00,,---,0.00,VWS V14.00,2013-04-08 12:07:00,
2013-04-08 08:09:00,43.3,37.9,29.85,SSE,158,3.0,11.0,81,0.00,,---,0.00,VWS V14.00,2013-04-08 12:09:00,
2013-04-08 08:10:00,43.3,37.9,29.85,South,180,4.0,11.0,81,0.00,,---,0.00,VWS V14.00,2013-04-08 12:10:00,
2013-04-08 08:12:00,43.3,37.9,29.85,SE,145,8.0,11.0,81,0.00,,---,0.00,VWS V14.00,2013-04-08 12:12:00,
2013-04-08 08:15:00,43.4,38.0,29.85,South,188,6.0,11.0,81,0.00,,---,0.00,VWS V14.00,2013-04-08 12:15:00,
2013-04-08 08:16:00,43.4,38.0,29.85,SE,142,8.0,11.0,81,0.00,,---,0.00,VWS V14.00,2013-04-08 12:16:00,
2013-04-08 08:17:00,43.6,38.2,29.85,South,169,3.0,11.0,81,0.00,,---,0.00,VWS V14.00,2013-04-08 12:17:00,
2013-04-08 08:19:00,43.7,38.3,29.85,SSE,165,4.0,13.0,81,0.00,,---,0.00,VWS V14.00,2013-04-08 12:19:00,
2013-04-08 08:20:00,43.7,38.3,29.85,SSE,163,5.0,13.0,81,0.00,,---,0.00,VWS V14.00,2013-04-08 12:20:00,
2013-04-08 08:22:00,43.8,38.4,29.85,South,175,3.0,13.0,81,0.00,,---,0.00,VWS V14.00,2013-04-08 12:22:00,
2013-04-08 08:23:00,43.9,38.5,29.85,SSE,161,4.0,13.0,81,0.00,,---,0.00,VWS V14.00,2013-04-08 12:23:00,
2013-04-08 08:24:00,44.0,38.5,29.85,SSE,157,6.0,13.0,81,0.00,,---,0.00,VWS V14.00,2013-04-08 12:24:00,
2013-04-08 08:27:00,44.0,38.5,29.85,SSE,157,3.0,13.0,81,0.00,,---,0.00,VWS V14.00,2013-04-08 12:27:00,
2013-04-08 08:29:00,44.3,39.2,29.85,SSE,159,7.0,13.0,82,0.00,,---,0.00,VWS V14.00,2013-04-08 12:29:00,
2013-04-08 08:30:00,44.4,39.3,29.85,SSE,160,9.0,13.0,82,0.00,,---,0.00,VWS V14.00,2013-04-08 12:30:00,
2013-04-08 08:31:00,44.5,39.4,29.84,South,176,7.0,13.0,82,0.00,,---,0.00,VWS V14.00,2013-04-08 12:31:00,
2013-04-08 08:32:00,44.5,39.4,29.84,SSE,165,3.0,13.0,82,0.00,,---,0.00,VWS V14.00,2013-04-08 12:32:00,
2013-04-08 08:35:00,44.6,39.1,29.84,SSE,159,7.0,13.0,81,0.00,,---,0.00,VWS V14.00,2013-04-08 12:35:00,
2013-04-08 08:36:00,44.6,39.1,29.84,South,190,5.0,13.0,81,0.00,,---,0.00,VWS V14.00,2013-04-08 12:36:00,
2013-04-08 08:38:00,44.6,38.8,29.84,SSE,153,6.0,13.0,80,0.00,,---,0.00,VWS V14.00,2013-04-08 12:38:00,
2013-04-08 08:39:00,44.5,38.4,29.84,SSE,157,4.0,13.0,79,0.00,,---,0.00,VWS V14.00,2013-04-08 12:39:00,
2013-04-08 08:41:00,44.6,38.8,29.84,SSE,153,7.0,13.0,80,0.00,,---,0.00,VWS V14.00,2013-04-08 12:41:00,
2013-04-08 08:42:00,44.6,38.8,29.84,SSE,155,5.0,13.0,80,0.00,,---,0.00,VWS V14.00,2013-04-08 12:42:00,
2013-04-08 08:44:00,44.6,38.5,29.84,SSE,155,4.0,13.0,79,0.00,,---,0.00,VWS V14.00,2013-04-08 12:44:00,
2013-04-08 08:45:00,44.6,38.2,29.84,SSE,155,5.0,13.0,78,0.00,,---,0.00,VWS V14.00,2013-04-08 12:45:00,
2013-04-08 08:48:00,44.7,38.3,29.83,SSE,159,5.0,13.0,78,0.00,,---,0.00,VWS V14.00,2013-04-08 12:48:00,
2013-04-08 08:50:00,44.7,38.3,29.83,SSE,158,3.0,13.0,78,0.00,,---,0.00,VWS V14.00,2013-04-08 12:50:00,
2013-04-08 08:51:00,44.9,38.8,29.83,SE,145,5.0,13.0,79,0.00,,---,0.00,VWS V14.00,2013-04-08 12:51:00,
2013-04-08 08:54:00,45.0,38.9,29.83,SSE,156,3.0,13.0,79,0.00,,---,0.00,VWS V14.00,2013-04-08 12:54:00,
2013-04-08 08:56:00,45.0,39.2,29.82,SSE,167,5.0,13.0,80,0.00,,---,0.00,VWS V14.00,2013-04-08 12:56:00,
2013-04-08 09:00:00,45.1,39.6,29.82,SSE,151,8.0,12.0,81,0.00,,---,0.00,VWS V14.00,2013-04-08 13:00:00,
2013-04-08 09:01:00,45.0,39.2,29.82,SSE,149,9.0,12.0,80,0.00,,---,0.00,VWS V14.00,2013-04-08 13:01:00,
2013-04-08 09:05:00,45.0,39.2,29.82,SSE,162,2.0,12.0,80,0.00,,---,0.00,VWS V14.00,2013-04-08 13:05:00,
2013-04-08 09:07:00,45.0,39.5,29.82,SSE,150,7.0,12.0,81,0.00,,---,0.00,VWS V14.00,2013-04-08 13:07:00,
2013-04-08 09:08:00,45.0,39.8,29.82,SSE,159,3.0,12.0,82,0.00,,---,0.00,VWS V14.00,2013-04-08 13:08:00,
2013-04-08 09:12:00,45.0,39.8,29.81,SE,144,6.0,12.0,82,0.00,,---,0.00,VWS V14.00,2013-04-08 13:12:00,
2013-04-08 09:13:00,45.0,39.8,29.81,SSE,161,6.0,12.0,82,0.00,,---,0.00,VWS V14.00,2013-04-08 13:13:00,
2013-04-08 09:17:00,45.2,40.3,29.81,SSE,152,7.0,12.0,83,0.00,,---,0.00,VWS V14.00,2013-04-08 13:17:00,
2013-04-08 09:19:00,45.3,40.5,29.81,SSE,155,6.0,12.0,83,0.00,,---,0.00,VWS V14.00,2013-04-08 13:19:00,
2013-04-08 09:20:00,45.3,40.5,29.81,SE,144,7.0,12.0,83,0.00,,---,0.00,VWS V14.00,2013-04-08 13:20:00,
2013-04-08 09:21:00,45.2,40.0,29.81,SSE,151,7.0,12.0,82,0.00,,---,0.00,VWS V14.00,2013-04-08 13:21:00,
2013-04-08 09:22:00,45.2,40.0,29.81,SSE,148,7.0,12.0,82,0.00,,---,0.00,VWS V14.00,2013-04-08 13:22:00,
2013-04-08 09:25:00,45.2,40.0,29.80,SSE,150,10.0,12.0,82,0.00,,---,0.00,VWS V14.00,2013-04-08 13:25:00,
2013-04-08 09:27:00,45.2,40.3,29.80,SE,144,10.0,12.0,83,0.01,,---,0.01,VWS V14.00,2013-04-08 13:27:00,
2013-04-08 09:28:00,45.2,40.3,29.80,SSE,159,11.0,12.0,83,0.01,,---,0.01,VWS V14.00,2013-04-08 13:28:00,
2013-04-08 09:31:00,45.0,39.8,29.80,SE,146,6.0,14.0,82,0.01,,---,0.01,VWS V14.00,2013-04-08 13:31:00,
2013-04-08 09:32:00,45.0,40.2,29.80,SSE,165,9.0,14.0,83,0.01,,---,0.01,VWS V14.00,2013-04-08 13:32:00,
2013-04-08 09:33:00,45.0,40.2,29.80,SSE,159,7.0,14.0,83,0.01,,---,0.01,VWS V14.00,2013-04-08 13:33:00,
2013-04-08 09:37:00,44.9,40.4,29.79,SSE,168,8.0,14.0,84,0.02,,---,0.02,VWS V14.00,2013-04-08 13:37:00,
2013-04-08 09:38:00,44.7,40.2,29.79,SE,141,6.0,14.0,84,0.02,,---,0.02,VWS V14.00,2013-04-08 13:38:00,
2013-04-08 09:43:00,44.4,40.2,29.79,South,184,10.0,14.0,85,0.03,,---,0.03,VWS V14.00,2013-04-08 13:43:00,
2013-04-08 09:44:00,44.5,40.6,29.78,SE,141,6.0,14.0,86,0.03,,---,0.03,VWS V14.00,2013-04-08 13:44:00,
2013-04-08 09:45:00,44.5,40.6,29.78,SSE,166,10.0,14.0,86,0.03,,---,0.03,VWS V14.00,2013-04-08 13:45:00,
2013-04-08 09:47:00,44.3,40.4,29.78,SE,146,8.0,14.0,86,0.04,,---,0.04,VWS V14.00,2013-04-08 13:47:00,
2013-04-08 09:48:00,44.3,40.7,29.78,SSE,148,7.0,14.0,87,0.04,,---,0.04,VWS V14.00,2013-04-08 13:48:00,
2013-04-08 09:50:00,44.3,40.7,29.78,South,181,9.0,14.0,87,0.04,,---,0.04,VWS V14.00,2013-04-08 13:50:00,
2013-04-08 09:52:00,44.3,40.7,29.78,SSE,151,6.0,14.0,87,0.04,,---,0.04,VWS V14.00,2013-04-08 13:52:00,
2013-04-08 09:54:00,44.3,41.0,29.77,SE,142,6.0,14.0,88,0.04,,---,0.04,VWS V14.00,2013-04-08 13:54:00,
2013-04-08 09:55:00,44.3,41.0,29.77,SE,139,3.0,14.0,88,0.04,,---,0.04,VWS V14.00,2013-04-08 13:55:00,
2013-04-08 09:58:00,44.2,40.9,29.76,SE,142,5.0,14.0,88,0.05,,---,0.05,VWS V14.00,2013-04-08 13:58:00,
2013-04-08 09:59:00,44.2,40.9,29.76,SE,144,7.0,10.0,88,0.05,,---,0.05,VWS V14.00,2013-04-08 13:59:00,
2013-04-08 10:00:00,44.2,40.9,29.76,SE,139,9.0,11.0,88,0.05,,---,0.05,VWS V14.00,2013-04-08 14:00:00,
2013-04-08 10:02:00,44.2,41.2,29.76,SSE,149,5.0,11.0,89,0.06,,---,0.06,VWS V14.00,2013-04-08 14:02:00,
2013-04-08 10:05:00,44.3,41.3,29.76,SSE,153,2.0,12.0,89,0.06,,---,0.06,VWS V14.00,2013-04-08 14:05:00,
2013-04-08 10:07:00,44.3,41.3,29.76,SSE,159,6.0,12.0,89,0.06,,---,0.06,VWS V14.00,2013-04-08 14:07:00,
2013-04-08 10:08:00,44.6,41.8,29.75,SE,134,6.0,13.0,90,0.06,,---,0.06,VWS V14.00,2013-04-08 14:08:00,
2013-04-08 10:09:00,44.6,41.8,29.75,SE,139,5.0,13.0,90,0.06,,---,0.06,VWS V14.00,2013-04-08 14:09:00,
2013-04-08 10:13:00,44.5,41.8,29.75,SSE,153,7.0,16.0,90,0.06,,---,0.06,VWS V14.00,2013-04-08 14:13:00,
2013-04-08 10:14:00,44.5,41.8,29.75,South,169,5.0,16.0,90,0.06,,---,0.06,VWS V14.00,2013-04-08 14:14:00,
2013-04-08 10:15:00,44.7,42.0,29.74,SSE,165,7.0,16.0,90,0.06,,---,0.06,VWS V14.00,2013-04-08 14:15:00,
2013-04-08 10:16:00,44.7,42.0,29.74,SSE,160,4.0,16.0,90,0.06,,---,0.06,VWS V14.00,2013-04-08 14:16:00,
2013-04-08 10:18:00,44.6,41.8,29.74,SSE,153,6.0,16.0,90,0.06,,---,0.06,VWS V14.00,2013-04-08 14:18:00,
2013-04-08 10:20:00,44.5,41.8,29.74,SE,141,4.0,16.0,90,0.06,,---,0.06,VWS V14.00,2013-04-08 14:20:00,
2013-04-08 10:21:00,44.6,41.8,29.74,SSE,157,8.0,16.0,90,0.06,,---,0.06,VWS V14.00,2013-04-08 14:21:00,
2013-04-08 10:22:00,44.7,42.2,29.74,SE,146,7.0,16.0,91,0.06,,---,0.06,VWS V14.00,2013-04-08 14:22:00,
2013-04-08 10:25:00,44.7,42.2,29.74,SSE,155,11.0,16.0,91,0.06,,---,0.06,VWS V14.00,2013-04-08 14:25:00,
2013-04-08 10:28:00,44.9,42.4,29.74,SSE,161,3.0,16.0,91,0.06,,---,0.06,VWS V14.00,2013-04-08 14:28:00,
2013-04-08 10:29:00,45.0,42.5,29.74,SE,143,10.0,11.0,91,0.05,,---,0.06,VWS V14.00,2013-04-08 14:29:00,
2013-04-08 10:30:00,45.0,42.5,29.74,SE,146,3.0,11.0,91,0.05,,---,0.06,VWS V14.00,2013-04-08 14:30:00,
2013-04-08 10:32:00,45.2,42.7,29.74,SSE,148,9.0,11.0,91,0.05,,---,0.06,VWS V14.00,2013-04-08 14:32:00,
2013-04-08 10:34:00,45.4,42.9,29.74,SSE,158,5.0,12.0,91,0.05,,---,0.06,VWS V14.00,2013-04-08 14:34:00,
2013-04-08 10:35:00,45.3,42.8,29.74,SSE,152,6.0,12.0,91,0.05,,---,0.06,VWS V14.00,2013-04-08 14:35:00,
2013-04-08 10:38:00,45.4,42.9,29.74,SE,143,5.0,12.0,91,0.05,,---,0.06,VWS V14.00,2013-04-08 14:38:00,
2013-04-08 10:41:00,45.8,43.6,29.74,SSE,159,5.0,12.0,92,0.05,,---,0.06,VWS V14.00,2013-04-08 14:41:00,
2013-04-08 10:42:00,45.7,43.5,29.74,SSE,161,2.0,12.0,92,0.05,,---,0.06,VWS V14.00,2013-04-08 14:42:00,
2013-04-08 10:43:00,45.7,43.5,29.74,SSE,161,4.0,12.0,92,0.05,,---,0.06,VWS V14.00,2013-04-08 14:43:00,
2013-04-08 10:44:00,45.7,43.5,29.74,SSE,153,4.0,12.0,92,0.05,,---,0.06,VWS V14.00,2013-04-08 14:44:00,
2013-04-08 10:47:00,45.6,43.4,29.74,SSE,153,4.0,12.0,92,0.05,,---,0.06,VWS V14.00,2013-04-08 14:47:00,
2013-04-08 10:48:00,45.6,43.4,29.74,SE,146,7.0,12.0,92,0.05,,---,0.06,VWS V14.00,2013-04-08 14:48:00,
2013-04-08 10:50:00,45.7,43.5,29.73,SE,146,5.0,12.0,92,0.05,,---,0.06,VWS V14.00,2013-04-08 14:50:00,
2013-04-08 10:52:00,45.8,43.6,29.73,SSE,148,5.0,12.0,92,0.05,,---,0.06,VWS V14.00,2013-04-08 14:52:00,
2013-04-08 10:57:00,46.1,43.9,29.75,South,175,3.0,12.0,92,0.06,,---,0.07,VWS V14.00,2013-04-08 14:57:00,
2013-04-08 10:58:00,46.3,44.1,29.75,SSE,160,2.0,12.0,92,0.07,,---,0.08,VWS V14.00,2013-04-08 14:58:00,
2013-04-08 11:00:00,46.6,44.4,29.74,SSE,164,11.0,11.0,92,0.04,,---,0.09,VWS V14.00,2013-04-08 15:00:00,
2013-04-08 11:02:00,46.4,44.2,29.74,SSE,148,3.0,11.0,92,0.06,,---,0.11,VWS V14.00,2013-04-08 15:02:00,
2013-04-08 11:04:00,46.5,44.3,29.74,SSE,148,3.0,11.0,92,0.07,,---,0.12,VWS V14.00,2013-04-08 15:04:00,
2013-04-08 11:05:00,46.5,44.6,29.75,SSE,150,0.0,11.0,93,0.07,,---,0.12,VWS V14.00,2013-04-08 15:05:00,
2013-04-08 11:07:00,46.6,44.7,29.74,SSE,161,4.0,11.0,93,0.07,,---,0.12,VWS V14.00,2013-04-08 15:07:00,
2013-04-08 11:09:00,46.7,44.8,29.74,South,171,1.0,11.0,93,0.07,,---,0.12,VWS V14.00,2013-04-08 15:09:00,
2013-04-08 11:11:00,46.8,44.9,29.74,South,178,4.0,11.0,93,0.08,,---,0.13,VWS V14.00,2013-04-08 15:11:00,
2013-04-08 11:12:00,46.8,44.9,29.74,South,178,3.0,11.0,93,0.08,,---,0.13,VWS V14.00,2013-04-08 15:12:00,
2013-04-08 11:15:00,47.2,45.3,29.74,SSE,168,2.0,11.0,93,0.08,,---,0.13,VWS V14.00,2013-04-08 15:15:00,
2013-04-08 11:16:00,47.3,45.4,29.74,South,184,2.0,11.0,93,0.08,,---,0.13,VWS V14.00,2013-04-08 15:16:00,
2013-04-08 11:17:00,47.3,45.4,29.74,South,177,5.0,11.0,93,0.08,,---,0.13,VWS V14.00,2013-04-08 15:17:00,
2013-04-08 11:18:00,47.3,45.4,29.74,SSE,168,3.0,11.0,93,0.08,,---,0.13,VWS V14.00,2013-04-08 15:18:00,
2013-04-08 11:20:00,47.4,45.5,29.74,SSE,163,2.0,11.0,93,0.08,,---,0.13,VWS V14.00,2013-04-08 15:20:00,
2013-04-08 11:22:00,47.5,45.9,29.74,SE,146,3.0,11.0,94,0.08,,---,0.13,VWS V14.00,2013-04-08 15:22:00,
2013-04-08 11:23:00,47.6,46.0,29.73,SSE,155,6.0,11.0,94,0.08,,---,0.13,VWS V14.00,2013-04-08 15:23:00,
2013-04-08 11:25:00,47.6,46.0,29.73,SSE,156,3.0,11.0,94,0.08,,---,0.13,VWS V14.00,2013-04-08 15:25:00,
2013-04-08 11:28:00,47.6,46.0,29.73,SSE,155,6.0,11.0,94,0.08,,---,0.13,VWS V14.00,2013-04-08 15:28:00,
2013-04-08 11:29:00,47.6,46.0,29.73,SSE,163,4.0,8.0,94,0.07,,---,0.13,VWS V14.00,2013-04-08 15:29:00,
2013-04-08 11:30:00,47.7,46.1,29.73,SSE,163,6.0,12.0,94,0.07,,---,0.13,VWS V14.00,2013-04-08 15:30:00,
2013-04-08 11:31:00,47.8,46.2,29.73,South,175,6.0,12.0,94,0.07,,---,0.13,VWS V14.00,2013-04-08 15:31:00,
2013-04-08 11:35:00,48.1,46.5,29.72,SSE,150,5.0,12.0,94,0.07,,---,0.13,VWS V14.00,2013-04-08 15:35:00,
2013-04-08 11:37:00,48.1,46.5,29.73,South,172,6.0,12.0,94,0.07,,---,0.13,VWS V14.00,2013-04-08 15:37:00,
2013-04-08 11:40:00,48.2,46.6,29.73,South,177,3.0,14.0,94,0.07,,---,0.13,VWS V14.00,2013-04-08 15:40:00,
2013-04-08 11:42:00,48.5,46.9,29.72,SSE,159,4.0,14.0,94,0.07,,---,0.13,VWS V14.00,2013-04-08 15:42:00,
2013-04-08 11:45:00,48.8,47.4,29.72,SSE,164,5.0,14.0,95,0.07,,---,0.13,VWS V14.00,2013-04-08 15:45:00,
2013-04-08 11:47:00,49.1,47.7,29.71,SSE,163,3.0,14.0,95,0.07,,---,0.13,VWS V14.00,2013-04-08 15:47:00,
2013-04-08 11:48:00,49.1,47.7,29.71,SSE,154,5.0,14.0,95,0.07,,---,0.13,VWS V14.00,2013-04-08 15:48:00,
2013-04-08 11:49:00,49.3,47.9,29.71,SSE,148,10.0,14.0,95,0.07,,---,0.13,VWS V14.00,2013-04-08 15:49:00,
2013-04-08 11:53:00,49.8,48.4,29.71,SSE,155,11.0,14.0,95,0.07,,---,0.13,VWS V14.00,2013-04-08 15:53:00,
2013-04-08 11:54:00,49.8,48.4,29.70,SSE,153,4.0,14.0,95,0.07,,---,0.13,VWS V14.00,2013-04-08 15:54:00,
2013-04-08 11:57:00,50.0,48.6,29.70,SSE,160,4.0,14.0,95,0.07,,---,0.13,VWS V14.00,2013-04-08 15:57:00,
2013-04-08 11:58:00,50.1,48.7,29.70,SSE,160,5.0,14.0,95,0.07,,---,0.13,VWS V14.00,2013-04-08 15:58:00,
2013-04-08 11:59:00,50.4,49.0,29.70,SE,141,10.0,13.0,95,0.05,,---,0.13,VWS V14.00,2013-04-08 15:59:00,
2013-04-08 12:00:00,50.4,49.0,29.70,South,186,12.0,13.0,95,0.05,,---,0.13,VWS V14.00,2013-04-08 16:00:00,
2013-04-08 12:05:00,50.5,49.1,29.70,SSE,167,4.0,13.0,95,0.05,,---,0.13,VWS V14.00,2013-04-08 16:05:00,
2013-04-08 12:06:00,50.5,49.1,29.71,SSE,162,7.0,13.0,95,0.05,,---,0.13,VWS V14.00,2013-04-08 16:06:00,
2013-04-08 12:07:00,50.6,49.2,29.70,SSE,149,4.0,13.0,95,0.05,,---,0.13,VWS V14.00,2013-04-08 16:07:00,
2013-04-08 12:10:00,50.5,49.1,29.71,South,169,6.0,13.0,95,0.05,,---,0.13,VWS V14.00,2013-04-08 16:10:00,
2013-04-08 12:11:00,50.6,49.2,29.70,SSE,162,4.0,13.0,95,0.05,,---,0.13,VWS V14.00,2013-04-08 16:11:00,
2013-04-08 12:13:00,50.6,49.2,29.70,SSE,150,2.0,13.0,95,0.05,,---,0.13,VWS V14.00,2013-04-08 16:13:00,
2013-04-08 12:16:00,50.7,49.0,29.70,SSE,161,6.0,14.0,94,0.05,,---,0.13,VWS V14.00,2013-04-08 16:16:00,
2013-04-08 12:17:00,50.7,49.0,29.70,SSW,196,9.0,14.0,94,0.05,,---,0.13,VWS V14.00,2013-04-08 16:17:00,
2013-04-08 12:19:00,50.9,49.2,29.70,SSE,154,5.0,14.0,94,0.05,,---,0.13,VWS V14.00,2013-04-08 16:19:00,
2013-04-08 12:22:00,50.9,49.2,29.70,South,178,6.0,14.0,94,0.05,,---,0.13,VWS V14.00,2013-04-08 16:22:00,
2013-04-08 12:24:00,51.0,49.3,29.70,South,173,3.0,14.0,94,0.05,,---,0.13,VWS V14.00,2013-04-08 16:24:00,
2013-04-08 12:25:00,51.1,49.4,29.69,SSE,167,7.0,14.0,94,0.05,,---,0.13,VWS V14.00,2013-04-08 16:25:00,
2013-04-08 12:26:00,51.2,49.5,29.70,South,179,6.0,14.0,94,0.05,,---,0.13,VWS V14.00,2013-04-08 16:26:00,
2013-04-08 12:28:00,51.2,49.5,29.69,South,175,7.0,14.0,94,0.05,,---,0.13,VWS V14.00,2013-04-08 16:28:00,
2013-04-08 12:31:00,51.2,49.2,29.69,South,173,7.0,17.0,93,0.00,,---,0.13,VWS V14.00,2013-04-08 16:31:00,
2013-04-08 12:32:00,51.3,49.3,29.69,South,175,11.0,17.0,93,0.00,,---,0.13,VWS V14.00,2013-04-08 16:32:00,
2013-04-08 12:35:00,51.5,49.5,29.69,South,189,7.0,17.0,93,0.00,,---,0.13,VWS V14.00,2013-04-08 16:35:00,
2013-04-08 12:37:00,51.7,49.8,29.69,South,171,7.0,17.0,93,0.00,,---,0.13,VWS V14.00,2013-04-08 16:37:00,
2013-04-08 12:38:00,51.7,49.8,29.69,SSE,166,5.0,17.0,93,0.00,,---,0.13,VWS V14.00,2013-04-08 16:38:00,
2013-04-08 12:39:00,51.7,49.8,29.69,South,190,12.0,17.0,93,0.00,,---,0.13,VWS V14.00,2013-04-08 16:39:00,
2013-04-08 12:40:00,51.7,49.8,29.69,South,184,6.0,17.0,93,0.00,,---,0.13,VWS V14.00,2013-04-08 16:40:00,
2013-04-08 12:43:00,51.9,49.9,29.69,SSE,165,4.0,17.0,93,0.00,,---,0.13,VWS V14.00,2013-04-08 16:43:00,
2013-04-08 12:44:00,52.1,50.1,29.68,South,172,7.0,17.0,93,0.00,,---,0.13,VWS V14.00,2013-04-08 16:44:00,
2013-04-08 12:45:00,52.1,50.1,29.68,SSE,165,7.0,17.0,93,0.00,,---,0.13,VWS V14.00,2013-04-08 16:45:00,
2013-04-08 12:47:00,52.1,50.1,29.68,SSE,164,6.0,17.0,93,0.00,,---,0.13,VWS V14.00,2013-04-08 16:47:00,
2013-04-08 12:49:00,52.2,50.0,29.68,SSE,158,11.0,17.0,92,0.00,,---,0.13,VWS V14.00,2013-04-08 16:49:00,
2013-04-08 12:50:00,52.3,50.0,29.68,South,173,3.0,17.0,92,0.00,,---,0.13,VWS V14.00,2013-04-08 16:50:00,
2013-04-08 12:52:00,52.4,50.4,29.68,South,182,10.0,17.0,93,0.00,,---,0.13,VWS V14.00,2013-04-08 16:52:00,
2013-04-08 12:54:00,52.4,50.2,29.68,South,189,3.0,17.0,92,0.00,,---,0.13,VWS V14.00,2013-04-08 16:54:00,
2013-04-08 12:56:00,52.7,50.5,29.68,SSE,164,2.0,17.0,92,0.00,,---,0.13,VWS V14.00,2013-04-08 16:56:00,
2013-04-08 12:57:00,52.8,50.5,29.68,SSE,155,5.0,17.0,92,0.00,,---,0.13,VWS V14.00,2013-04-08 16:57:00,
2013-04-08 12:59:00,52.9,50.6,29.68,South,184,13.0,14.0,92,0.00,,---,0.13,VWS V14.00,2013-04-08 16:59:00,
2013-04-08 13:02:00,53.1,50.8,29.67,South,184,13.0,16.0,92,0.00,,---,0.13,VWS V14.00,2013-04-08 17:02:00,
2013-04-08 13:05:00,53.4,51.1,29.67,SSE,159,5.0,16.0,92,0.00,,---,0.13,VWS V14.00,2013-04-08 17:05:00,
2013-04-08 13:07:00,53.7,51.4,29.67,SSE,159,11.0,16.0,92,0.00,,---,0.13,VWS V14.00,2013-04-08 17:07:00,
2013-04-08 13:10:00,53.9,51.6,29.66,South,180,5.0,21.0,92,0.00,,---,0.13,VWS V14.00,2013-04-08 17:10:00,
2013-04-08 13:13:00,54.0,51.4,29.66,South,180,9.0,21.0,91,0.00,,---,0.13,VWS V14.00,2013-04-08 17:13:00,
2013-04-08 13:16:00,54.2,51.9,29.66,SSE,168,4.0,21.0,92,0.00,,---,0.13,VWS V14.00,2013-04-08 17:16:00,
2013-04-08 13:18:00,54.3,52.0,29.66,South,184,8.0,21.0,92,0.00,,---,0.13,VWS V14.00,2013-04-08 17:18:00,
2013-04-08 13:19:00,54.4,51.8,29.66,South,191,5.0,21.0,91,0.00,,---,0.13,VWS V14.00,2013-04-08 17:19:00,
2013-04-08 13:20:00,54.5,51.9,29.65,South,175,5.0,21.0,91,0.00,,---,0.13,VWS V14.00,2013-04-08 17:20:00,
2013-04-08 13:22:00,54.9,52.6,29.65,South,170,5.0,21.0,92,0.00,,---,0.13,VWS V14.00,2013-04-08 17:22:00,
2013-04-08 13:24:00,55.3,53.0,29.65,South,186,7.0,21.0,92,0.00,,---,0.13,VWS V14.00,2013-04-08 17:24:00,
2013-04-08 13:25:00,55.6,53.3,29.65,South,191,6.0,21.0,92,0.00,,---,0.13,VWS V14.00,2013-04-08 17:25:00,
2013-04-08 13:29:00,56.8,54.2,29.65,South,191,11.0,16.0,91,0.00,,---,0.13,VWS V14.00,2013-04-08 17:29:00,
2013-04-08 13:32:00,57.6,54.4,29.65,South,175,13.0,18.0,89,0.00,,---,0.13,VWS V14.00,2013-04-08 17:32:00,
2013-04-08 13:34:00,57.9,54.4,29.65,South,191,7.0,18.0,88,0.00,,---,0.13,VWS V14.00,2013-04-08 17:34:00,
2013-04-08 13:37:00,58.1,54.3,29.64,South,182,9.0,19.0,87,0.00,,---,0.13,VWS V14.00,2013-04-08 17:37:00,
2013-04-08 13:39:00,58.1,54.3,29.64,SSE,166,13.0,19.0,87,0.00,,---,0.13,VWS V14.00,2013-04-08 17:39:00,
2013-04-08 13:40:00,58.2,54.0,29.64,South,173,6.0,20.0,86,0.00,,---,0.13,VWS V14.00,2013-04-08 17:40:00,
2013-04-08 13:44:00,58.4,54.2,29.63,South,186,13.0,21.0,86,0.00,,---,0.13,VWS V14.00,2013-04-08 17:44:00,
2013-04-08 13:46:00,58.4,54.2,29.62,South,171,7.0,21.0,86,0.00,,---,0.13,VWS V14.00,2013-04-08 17:46:00,
2013-04-08 13:47:00,58.4,54.2,29.62,South,184,10.0,21.0,86,0.00,,---,0.13,VWS V14.00,2013-04-08 17:47:00,
2013-04-08 13:48:00,58.3,54.1,29.62,South,169,5.0,21.0,86,0.00,,---,0.13,VWS V14.00,2013-04-08 17:48:00,
2013-04-08 13:50:00,58.6,54.8,29.62,SSE,168,2.0,21.0,87,0.00,,---,0.13,VWS V14.00,2013-04-08 17:50:00,
2013-04-08 13:52:00,59.0,55.1,29.62,SSE,159,10.0,21.0,87,0.00,,---,0.13,VWS V14.00,2013-04-08 17:52:00,
2013-04-08 13:53:00,59.0,55.1,29.62,South,182,6.0,21.0,87,0.00,,---,0.13,VWS V14.00,2013-04-08 17:53:00,
2013-04-08 13:56:00,59.0,54.5,29.61,SSE,167,6.0,21.0,85,0.00,,---,0.13,VWS V14.00,2013-04-08 17:56:00,
2013-04-08 13:57:00,59.0,54.8,29.61,SSW,202,10.0,21.0,86,0.00,,---,0.13,VWS V14.00,2013-04-08 17:57:00,
2013-04-08 13:58:00,59.0,54.5,29.61,SSW,206,7.0,21.0,85,0.00,,---,0.13,VWS V14.00,2013-04-08 17:58:00,
2013-04-08 14:00:00,59.0,54.5,29.61,South,190,6.0,12.0,85,0.00,,---,0.13,VWS V14.00,2013-04-08 18:00:00,
2013-04-08 14:02:00,59.4,54.9,29.61,SSE,168,10.0,15.0,85,0.00,,---,0.13,VWS V14.00,2013-04-08 18:02:00,
2013-04-08 14:03:00,59.4,54.9,29.61,South,172,6.0,15.0,85,0.00,,---,0.13,VWS V14.00,2013-04-08 18:03:00,
2013-04-08 14:04:00,59.5,55.3,29.61,SSW,199,14.0,15.0,86,0.00,,---,0.13,VWS V14.00,2013-04-08 18:04:00,
2013-04-08 14:06:00,59.6,55.4,29.61,South,174,10.0,15.0,86,0.00,,---,0.13,VWS V14.00,2013-04-08 18:06:00,
2013-04-08 14:08:00,59.6,55.1,29.61,South,177,5.0,15.0,85,0.00,,---,0.13,VWS V14.00,2013-04-08 18:08:00,
2013-04-08 14:09:00,59.7,55.2,29.61,South,178,7.0,15.0,85,0.00,,---,0.13,VWS V14.00,2013-04-08 18:09:00,
2013-04-08 14:11:00,59.8,55.3,29.61,South,178,13.0,16.0,85,0.00,,---,0.13,VWS V14.00,2013-04-08 18:11:00,
2013-04-08 14:14:00,59.9,55.4,29.61,South,175,4.0,16.0,85,0.00,,---,0.13,VWS V14.00,2013-04-08 18:14:00,
2013-04-08 14:15:00,59.9,55.4,29.61,South,173,5.0,16.0,85,0.00,,---,0.13,VWS V14.00,2013-04-08 18:15:00,
2013-04-08 14:17:00,60.0,55.5,29.61,South,183,3.0,16.0,85,0.00,,---,0.13,VWS V14.00,2013-04-08 18:17:00,
2013-04-08 14:21:00,60.1,55.6,29.61,South,186,0.0,16.0,85,0.00,,---,0.13,VWS V14.00,2013-04-08 18:21:00,
2013-04-08 14:22:00,60.1,55.6,29.61,South,186,2.0,16.0,85,0.00,,---,0.13,VWS V14.00,2013-04-08 18:22:00,
2013-04-08 14:24:00,60.0,55.5,29.62,WSW,257,5.0,16.0,85,0.00,,---,0.13,VWS V14.00,2013-04-08 18:24:00,
2013-04-08 14:27:00,59.6,55.1,29.64,NNW,331,4.0,16.0,85,0.01,,---,0.14,VWS V14.00,2013-04-08 18:27:00,
2013-04-08 14:28:00,59.3,54.8,29.64,NW,315,6.0,16.0,85,0.02,,---,0.15,VWS V14.00,2013-04-08 18:28:00,
2013-04-08 14:30:00,59.0,54.5,29.64,NW,304,3.0,12.0,85,0.02,,---,0.15,VWS V14.00,2013-04-08 18:30:00,
2013-04-08 14:33:00,58.8,54.6,29.64,WNW,284,5.0,12.0,86,0.02,,---,0.15,VWS V14.00,2013-04-08 18:33:00,
2013-04-08 14:34:00,58.7,54.8,29.64,WNW,292,4.0,12.0,87,0.02,,---,0.15,VWS V14.00,2013-04-08 18:34:00,
2013-04-08 14:39:00,59.0,55.1,29.64,WSW,255,2.0,18.0,87,0.02,,---,0.15,VWS V14.00,2013-04-08 18:39:00,
2013-04-08 14:40:00,59.0,55.1,29.64,WNW,290,11.0,18.0,87,0.02,,---,0.15,VWS V14.00,2013-04-08 18:40:00,
2013-04-08 14:43:00,59.5,55.3,29.63,WNW,296,13.0,23.0,86,0.02,,---,0.15,VWS V14.00,2013-04-08 18:43:00,
2013-04-08 14:45:00,59.9,55.4,29.63,West,268,17.0,23.0,85,0.02,,---,0.15,VWS V14.00,2013-04-08 18:45:00,
2013-04-08 14:46:00,60.2,55.3,29.63,West,270,11.0,27.0,84,0.02,,---,0.15,VWS V14.00,2013-04-08 18:46:00,
2013-04-08 14:48:00,60.8,54.9,29.63,West,262,14.0,27.0,81,0.02,,---,0.15,VWS V14.00,2013-04-08 18:48:00,
2013-04-08 14:50:00,61.1,54.5,29.63,SW,230,15.0,27.0,79,0.02,,---,0.15,VWS V14.00,2013-04-08 18:50:00,
2013-04-08 14:51:00,61.1,54.5,29.64,WNW,290,16.0,27.0,79,0.02,,---,0.15,VWS V14.00,2013-04-08 18:51:00,
2013-04-08 14:54:00,61.5,54.2,29.64,West,259,9.0,27.0,77,0.02,,---,0.15,VWS V14.00,2013-04-08 18:54:00,
2013-04-08 14:55:00,61.6,54.0,29.64,WSW,250,9.0,38.0,76,0.02,,---,0.15,VWS V14.00,2013-04-08 18:55:00,
2013-04-08 14:56:00,61.7,54.1,29.64,West,272,14.0,38.0,76,0.02,,---,0.15,VWS V14.00,2013-04-08 18:56:00,
2013-04-08 14:57:00,61.8,54.2,29.64,WNW,288,10.0,38.0,76,0.02,,---,0.15,VWS V14.00,2013-04-08 18:57:00,
2013-04-08 14:59:00,61.9,53.9,29.64,West,273,16.0,26.0,75,0.02,,---,0.15,VWS V14.00,2013-04-08 18:59:00,
2013-04-08 15:02:00,62.4,54.4,29.64,West,259,13.0,26.0,75,0.02,,---,0.15,VWS V14.00,2013-04-08 19:02:00,
2013-04-08 15:04:00,62.5,54.5,29.64,West,265,14.0,26.0,75,0.02,,---,0.15,VWS V14.00,2013-04-08 19:04:00,
2013-04-08 15:05:00,62.5,54.5,29.64,WNW,292,16.0,26.0,75,0.02,,---,0.15,VWS V14.00,2013-04-08 19:05:00,
2013-04-08 15:09:00,62.9,54.9,29.64,WNW,286,26.0,26.0,75,0.02,,---,0.15,VWS V14.00,2013-04-08 19:09:00,
2013-04-08 15:10:00,63.0,54.6,29.64,West,269,22.0,28.0,74,0.02,,---,0.15,VWS V14.00,2013-04-08 19:10:00,
2013-04-08 15:14:00,63.7,54.1,29.64,West,279,21.0,35.0,71,0.02,,---,0.15,VWS V14.00,2013-04-08 19:14:00,
2013-04-08 15:15:00,63.7,54.1,29.64,WNW,284,20.0,35.0,71,0.02,,---,0.15,VWS V14.00,2013-04-08 19:15:00,
2013-04-08 15:17:00,63.8,54.2,29.64,West,273,33.0,35.0,71,0.02,,---,0.15,VWS V14.00,2013-04-08 19:17:00,
2013-04-08 15:20:00,64.0,54.0,29.64,WNW,295,16.0,38.0,70,0.02,,---,0.15,VWS V14.00,2013-04-08 19:20:00,
2013-04-08 15:21:00,64.1,54.1,29.64,NW,322,15.0,38.0,70,0.02,,---,0.15,VWS V14.00,2013-04-08 19:21:00,
2013-04-08 15:22:00,64.2,53.8,29.64,WNW,284,19.0,38.0,69,0.02,,---,0.15,VWS V14.00,2013-04-08 19:22:00,
2013-04-08 15:25:00,64.3,53.5,29.64,West,271,18.0,38.0,68,0.02,,---,0.15,VWS V14.00,2013-04-08 19:25:00,
2013-04-08 15:27:00,64.4,53.6,29.64,West,275,15.0,38.0,68,0.02,,---,0.15,VWS V14.00,2013-04-08 19:27:00,
2013-04-08 15:30:00,64.3,53.5,29.64,WNW,285,24.0,37.0,68,0.00,,---,0.15,VWS V14.00,2013-04-08 19:30:00,
2013-04-08 15:32:00,64.2,53.0,29.64,West,265,14.0,37.0,67,0.00,,---,0.15,VWS V14.00,2013-04-08 19:32:00,
2013-04-08 15:33:00,64.2,53.0,29.64,WNW,286,25.0,37.0,67,0.00,,---,0.15,VWS V14.00,2013-04-08 19:33:00,
2013-04-08 15:35:00,64.2,52.2,29.64,West,278,19.0,40.0,65,0.00,,---,0.15,VWS V14.00,2013-04-08 19:35:00,
2013-04-08 15:38:00,64.2,52.2,29.65,WNW,294,31.0,40.0,65,0.00,,---,0.15,VWS V14.00,2013-04-08 19:38:00,
2013-04-08 15:41:00,64.1,52.1,29.65,NW,307,12.0,40.0,65,0.00,,---,0.15,VWS V14.00,2013-04-08 19:41:00,
2013-04-08 15:44:00,63.9,51.5,29.65,West,278,13.0,40.0,64,0.00,,---,0.15,VWS V14.00,2013-04-08 19:44:00,
2013-04-08 15:46:00,63.9,51.5,29.65,West,277,23.0,40.0,64,0.00,,---,0.15,VWS V14.00,2013-04-08 19:46:00,
2013-04-08 15:47:00,63.8,51.4,29.65,West,260,26.0,40.0,64,0.00,,---,0.15,VWS V14.00,2013-04-08 19:47:00,
2013-04-08 15:50:00,63.8,51.4,29.66,West,266,18.0,40.0,64,0.00,,---,0.15,VWS V14.00,2013-04-08 19:50:00,
2013-04-08 15:52:00,63.8,51.4,29.66,WNW,285,19.0,40.0,64,0.00,,---,0.15,VWS V14.00,2013-04-08 19:52:00,
2013-04-08 15:53:00,63.7,51.3,29.66,West,269,19.0,40.0,64,0.00,,---,0.15,VWS V14.00,2013-04-08 19:53:00,
2013-04-08 15:57:00,63.8,51.8,29.66,West,263,22.0,40.0,65,0.00,,---,0.15,VWS V14.00,2013-04-08 19:57:00,
2013-04-08 15:58:00,63.8,51.8,29.66,WSW,257,18.0,40.0,65,0.00,,---,0.15,VWS V14.00,2013-04-08 19:58:00,
2013-04-08 15:59:00,63.8,51.4,29.66,WNW,288,19.0,29.0,64,0.00,,---,0.15,VWS V14.00,2013-04-08 19:59:00,
2013-04-08 16:00:00,63.8,51.4,29.66,WNW,284,16.0,31.0,64,0.00,,---,0.15,VWS V14.00,2013-04-08 20:00:00,
2013-04-08 16:02:00,63.8,51.4,29.66,WNW,284,6.0,31.0,64,0.00,,---,0.15,VWS V14.00,2013-04-08 20:02:00,
2013-04-08 16:05:00,64.1,51.7,29.67,WSW,248,22.0,31.0,64,0.00,,---,0.15,VWS V14.00,2013-04-08 20:05:00,
2013-04-08 16:06:00,64.1,51.7,29.67,NW,316,23.0,34.0,64,0.00,,---,0.15,VWS V14.00,2013-04-08 20:06:00,
2013-04-08 16:07:00,64.1,51.3,29.67,West,269,20.0,34.0,63,0.00,,---,0.15,VWS V14.00,2013-04-08 20:07:00,
2013-04-08 16:09:00,63.9,51.1,29.67,West,269,15.0,34.0,63,0.00,,---,0.15,VWS V14.00,2013-04-08 20:09:00,
2013-04-08 16:10:00,63.8,51.0,29.67,West,265,22.0,34.0,63,0.00,,---,0.15,VWS V14.00,2013-04-08 20:10:00,
2013-04-08 16:12:00,63.5,51.1,29.67,WNW,288,18.0,40.0,64,0.00,,---,0.15,VWS V14.00,2013-04-08 20:12:00,
2013-04-08 16:13:00,63.5,51.1,29.67,WNW,287,23.0,40.0,64,0.00,,---,0.15,VWS V14.00,2013-04-08 20:13:00,
2013-04-08 16:16:00,63.1,50.7,29.67,West,263,34.0,40.0,64,0.00,,---,0.15,VWS V14.00,2013-04-08 20:16:00,
2013-04-08 16:17:00,63.0,50.7,29.68,WNW,293,26.0,40.0,64,0.00,,---,0.15,VWS V14.00,2013-04-08 20:17:00,
2013-04-08 16:18:00,62.9,50.5,29.68,West,273,19.0,40.0,64,0.00,,---,0.15,VWS V14.00,2013-04-08 20:18:00,
2013-04-08 16:19:00,62.9,51.0,29.68,West,281,5.0,40.0,65,0.00,,---,0.15,VWS V14.00,2013-04-08 20:19:00,
2013-04-08 16:23:00,62.8,50.9,29.68,West,271,17.0,40.0,65,0.00,,---,0.15,VWS V14.00,2013-04-08 20:23:00,
2013-04-08 16:24:00,62.7,51.2,29.68,WNW,294,6.0,40.0,66,0.00,,---,0.15,VWS V14.00,2013-04-08 20:24:00,
2013-04-08 16:25:00,62.7,51.2,29.68,NW,307,25.0,40.0,66,0.00,,---,0.15,VWS V14.00,2013-04-08 20:25:00,
2013-04-08 16:26:00,62.6,50.7,29.68,WNW,294,23.0,40.0,65,0.00,,---,0.15,VWS V14.00,2013-04-08 20:26:00,
2013-04-08 16:28:00,62.3,50.4,29.68,West,273,15.0,17.0,65,0.00,,---,0.15,VWS V14.00,2013-04-08 20:28:00,
2013-04-08 16:29:00,62.2,50.3,29.68,West,275,21.0,30.0,65,0.00,,---,0.15,VWS V14.00,2013-04-08 20:29:00,
2013-04-08 16:32:00,61.7,50.2,29.69,WNW,293,33.0,33.0,66,0.00,,---,0.15,VWS V14.00,2013-04-08 20:32:00,
2013-04-08 16:33:00,61.5,50.0,29.68,West,263,17.0,33.0,66,0.00,,---,0.15,VWS V14.00,2013-04-08 20:33:00,
2013-04-08 16:36:00,61.0,50.0,29.69,WNW,288,33.0,33.0,67,0.00,,---,0.15,VWS V14.00,2013-04-08 20:36:00,
2013-04-08 16:38:00,60.7,49.7,29.69,WNW,283,17.0,33.0,67,0.00,,---,0.15,VWS V14.00,2013-04-08 20:38:00,
2013-04-08 16:39:00,60.6,50.0,29.69,WSW,257,16.0,33.0,68,0.00,,---,0.15,VWS V14.00,2013-04-08 20:39:00,
2013-04-08 16:40:00,60.5,49.9,29.69,NW,305,20.0,33.0,68,0.00,,---,0.15,VWS V14.00,2013-04-08 20:40:00,
2013-04-08 16:42:00,60.5,49.9,29.69,WSW,245,9.0,33.0,68,0.00,,---,0.15,VWS V14.00,2013-04-08 20:42:00,
2013-04-08 16:44:00,60.7,50.5,29.69,West,280,7.0,33.0,69,0.00,,---,0.15,VWS V14.00,2013-04-08 20:44:00,
2013-04-08 16:46:00,61.0,50.4,29.69,NW,321,8.0,33.0,68,0.00,,---,0.15,VWS V14.00,2013-04-08 20:46:00,
2013-04-08 16:47:00,61.0,50.4,29.69,West,281,18.0,33.0,68,0.00,,---,0.15,VWS V14.00,2013-04-08 20:47:00,
2013-04-08 16:48:00,60.9,49.9,29.69,WNW,287,25.0,33.0,67,0.00,,---,0.15,VWS V14.00,2013-04-08 20:48:00,
2013-04-08 16:50:00,60.9,49.9,29.69,NW,310,17.0,33.0,67,0.00,,---,0.15,VWS V14.00,2013-04-08 20:50:00,
2013-04-08 16:51:00,60.9,49.9,29.70,West,265,16.0,33.0,67,0.00,,---,0.15,VWS V14.00,2013-04-08 20:51:00,
2013-04-08 16:55:00,61.0,50.4,29.70,West,263,4.0,33.0,68,0.00,,---,0.15,VWS V14.00,2013-04-08 20:55:00,
2013-04-08 16:56:00,61.0,50.0,29.70,West,269,6.0,33.0,67,0.00,,---,0.15,VWS V14.00,2013-04-08 20:56:00,
2013-04-08 16:57:00,61.0,50.4,29.70,NW,311,14.0,33.0,68,0.00,,---,0.15,VWS V14.00,2013-04-08 20:57:00,
2013-04-08 16:58:00,60.9,49.9,29.70,NW,314,13.0,33.0,67,0.00,,---,0.15,VWS V14.00,2013-04-08 20:58:00,
2013-04-08 17:00:00,60.5,49.9,29.71,NW,311,17.0,22.0,68,0.00,,---,0.15,VWS V14.00,2013-04-08 21:00:00,
2013-04-08 17:01:00,60.1,49.5,29.71,WNW,286,12.0,25.0,68,0.00,,---,0.15,VWS V14.00,2013-04-08 21:01:00,
2013-04-08 17:05:00,59.3,49.1,29.71,WNW,291,16.0,32.0,69,0.00,,---,0.15,VWS V14.00,2013-04-08 21:05:00,
2013-04-08 17:07:00,59.0,49.2,29.71,West,275,17.0,33.0,70,0.00,,---,0.15,VWS V14.00,2013-04-08 21:07:00,
2013-04-08 17:11:00,59.0,49.6,29.72,West,269,10.0,33.0,71,0.00,,---,0.15,VWS V14.00,2013-04-08 21:11:00,
2013-04-08 17:12:00,59.0,49.6,29.72,West,271,21.0,33.0,71,0.00,,---,0.15,VWS V14.00,2013-04-08 21:12:00,
2013-04-08 17:13:00,59.0,49.2,29.72,WNW,289,3.0,33.0,70,0.00,,---,0.15,VWS V14.00,2013-04-08 21:13:00,
2013-04-08 17:14:00,59.0,49.6,29.72,WNW,303,8.0,33.0,71,0.00,,---,0.15,VWS V14.00,2013-04-08 21:14:00,
2013-04-08 17:17:00,58.9,49.5,29.72,WNW,287,17.0,33.0,71,0.00,,---,0.15,VWS V14.00,2013-04-08 21:17:00,
2013-04-08 17:18:00,58.4,49.0,29.73,WNW,291,11.0,33.0,71,0.00,,---,0.15,VWS V14.00,2013-04-08 21:18:00,
2013-04-08 17:19:00,58.2,48.8,29.73,NW,311,10.0,33.0,71,0.00,,---,0.15,VWS V14.00,2013-04-08 21:19:00,
2013-04-08 17:20:00,58.1,48.8,29.73,WNW,286,4.0,33.0,71,0.00,,---,0.15,VWS V14.00,2013-04-08 21:20:00,
2013-04-08 17:23:00,57.7,48.8,29.74,West,267,21.0,33.0,72,0.00,,---,0.15,VWS V14.00,2013-04-08 21:23:00,
2013-04-08 17:24:00,57.6,48.7,29.73,WSW,245,20.0,33.0,72,0.00,,---,0.15,VWS V14.00,2013-04-08 21:24:00,
2013-04-08 17:27:00,56.9,48.0,29.74,WNW,291,14.0,33.0,72,0.00,,---,0.15,VWS V14.00,2013-04-08 21:27:00,
2013-04-08 17:28:00,56.7,48.2,29.74,WNW,299,16.0,16.0,73,0.00,,---,0.15,VWS V14.00,2013-04-08 21:28:00,
2013-04-08 17:30:00,56.4,47.9,29.74,WNW,285,22.0,26.0,73,0.00,,---,0.15,VWS V14.00,2013-04-08 21:30:00,
2013-04-08 17:33:00,55.7,47.2,29.75,West,276,20.0,31.0,73,0.00,,---,0.15,VWS V14.00,2013-04-08 21:33:00,
2013-04-08 17:34:00,55.6,47.1,29.75,WNW,289,15.0,31.0,73,0.00,,---,0.15,VWS V14.00,2013-04-08 21:34:00,
2013-04-08 17:35:00,55.5,47.4,29.75,West,268,17.0,31.0,74,0.00,,---,0.15,VWS V14.00,2013-04-08 21:35:00,
2013-04-08 17:37:00,55.3,47.2,29.75,WNW,300,22.0,31.0,74,0.00,,---,0.15,VWS V14.00,2013-04-08 21:37:00,
2013-04-08 17:39:00,55.1,47.0,29.75,NW,305,19.0,31.0,74,0.00,,---,0.15,VWS V14.00,2013-04-08 21:39:00,
2013-04-08 17:41:00,55.0,46.9,29.75,NW,315,25.0,31.0,74,0.00,,---,0.15,VWS V14.00,2013-04-08 21:41:00,
2013-04-08 17:44:00,54.3,46.2,29.76,WNW,299,15.0,31.0,74,0.00,,---,0.15,VWS V14.00,2013-04-08 21:44:00,
2013-04-08 17:46:00,53.9,45.8,29.76,NW,315,6.0,31.0,74,0.00,,---,0.15,VWS V14.00,2013-04-08 21:46:00,
2013-04-08 17:47:00,53.9,45.8,29.76,WNW,299,12.0,31.0,74,0.00,,---,0.15,VWS V14.00,2013-04-08 21:47:00,
2013-04-08 17:49:00,53.4,45.3,29.77,North,355,14.0,31.0,74,0.00,,---,0.15,VWS V14.00,2013-04-08 21:49:00,
2013-04-08 17:51:00,53.2,45.1,29.77,West,273,10.0,31.0,74,0.00,,---,0.15,VWS V14.00,2013-04-08 21:51:00,
2013-04-08 17:52:00,53.2,45.1,29.77,WNW,288,9.0,31.0,74,0.00,,---,0.15,VWS V14.00,2013-04-08 21:52:00,
2013-04-08 17:55:00,52.9,44.8,29.77,West,267,12.0,31.0,74,0.00,,---,0.15,VWS V14.00,2013-04-08 21:55:00,
2013-04-08 17:58:00,52.8,44.8,29.77,West,278,10.0,31.0,74,0.00,,---,0.15,VWS V14.00,2013-04-08 21:58:00,
2013-04-08 18:00:00,52.5,44.8,29.78,West,273,8.0,21.0,75,0.00,,---,0.15,VWS V14.00,2013-04-08 22:00:00,
2013-04-08 18:02:00,52.5,44.8,29.78,WSW,245,16.0,21.0,75,0.00,,---,0.15,VWS V14.00,2013-04-08 22:02:00,
2013-04-08 18:04:00,52.4,44.7,29.78,NW,304,4.0,26.0,75,0.00,,---,0.15,VWS V14.00,2013-04-08 22:04:00,
2013-04-08 18:05:00,52.3,44.6,29.79,WNW,295,13.0,26.0,75,0.00,,---,0.15,VWS V14.00,2013-04-08 22:05:00,
2013-04-08 18:07:00,51.8,44.1,29.79,WNW,283,18.0,26.0,75,0.00,,---,0.15,VWS V14.00,2013-04-08 22:07:00,
2013-04-08 18:08:00,51.8,44.1,29.79,WNW,297,17.0,26.0,75,0.00,,---,0.15,VWS V14.00,2013-04-08 22:08:00,
2013-04-08 18:09:00,51.4,43.8,29.79,NW,313,7.0,26.0,75,0.00,,---,0.15,VWS V14.00,2013-04-08 22:09:00,
2013-04-08 18:11:00,51.1,43.8,29.80,West,274,16.0,26.0,76,0.00,,---,0.15,VWS V14.00,2013-04-08 22:11:00,
2013-04-08 18:13:00,50.8,43.5,29.80,WNW,287,5.0,26.0,76,0.00,,---,0.15,VWS V14.00,2013-04-08 22:13:00,
2013-04-08 18:14:00,50.5,43.6,29.80,NW,314,3.0,26.0,77,0.00,,---,0.15,VWS V14.00,2013-04-08 22:14:00,
2013-04-08 18:15:00,50.5,43.6,29.80,NW,306,4.0,26.0,77,0.00,,---,0.15,VWS V14.00,2013-04-08 22:15:00,
2013-04-08 18:17:00,50.3,43.7,29.80,NNW,327,16.0,26.0,78,0.00,,---,0.15,VWS V14.00,2013-04-08 22:17:00,
2013-04-08 18:19:00,49.7,43.1,29.81,NW,309,11.0,26.0,78,0.00,,---,0.15,VWS V14.00,2013-04-08 22:19:00,
2013-04-08 18:20:00,49.6,43.0,29.81,WNW,287,6.0,26.0,78,0.00,,---,0.15,VWS V14.00,2013-04-08 22:20:00,
2013-04-08 18:22:00,49.4,43.2,29.81,NW,309,6.0,26.0,79,0.00,,---,0.15,VWS V14.00,2013-04-08 22:22:00,
2013-04-08 18:25:00,49.2,43.3,29.81,West,276,13.0,26.0,80,0.00,,---,0.15,VWS V14.00,2013-04-08 22:25:00,
2013-04-08 18:26:00,49.2,43.3,29.81,WNW,289,3.0,26.0,80,0.00,,---,0.15,VWS V14.00,2013-04-08 22:26:00,
2013-04-08 18:28:00,49.1,43.2,29.81,NW,318,5.0,26.0,80,0.00,,---,0.15,VWS V14.00,2013-04-08 22:28:00,
2013-04-08 18:30:00,49.1,43.2,29.82,WNW,299,10.0,18.0,80,0.00,,---,0.15,VWS V14.00,2013-04-08 22:30:00,
2013-04-08 18:31:00,49.1,43.2,29.82,NW,308,4.0,18.0,80,0.00,,---,0.15,VWS V14.00,2013-04-08 22:31:00,
2013-04-08 18:32:00,49.0,43.1,29.82,West,259,15.0,21.0,80,0.00,,---,0.15,VWS V14.00,2013-04-08 22:32:00,
2013-04-08 18:33:00,48.9,43.3,29.82,WNW,290,6.0,21.0,81,0.00,,---,0.15,VWS V14.00,2013-04-08 22:33:00,
2013-04-08 18:36:00,48.6,42.7,29.82,West,270,14.0,21.0,80,0.00,,---,0.15,VWS V14.00,2013-04-08 22:36:00,
2013-04-08 18:39:00,48.3,42.8,29.83,WSW,254,12.0,21.0,81,0.00,,---,0.15,VWS V14.00,2013-04-08 22:39:00,
2013-04-08 18:41:00,48.1,42.5,29.83,NW,313,7.0,21.0,81,0.00,,---,0.15,VWS V14.00,2013-04-08 22:41:00,
2013-04-08 18:42:00,48.0,42.8,29.83,NNW,335,14.0,21.0,82,0.00,,---,0.15,VWS V14.00,2013-04-08 22:42:00,
2013-04-08 18:44:00,47.8,42.6,29.83,WSW,257,10.0,21.0,82,0.00,,---,0.15,VWS V14.00,2013-04-08 22:44:00,
2013-04-08 18:46:00,47.6,42.4,29.83,West,267,13.0,21.0,82,0.00,,---,0.15,VWS V14.00,2013-04-08 22:46:00,
2013-04-08 18:47:00,47.5,42.3,29.83,WNW,294,7.0,21.0,82,0.00,,---,0.15,VWS V14.00,2013-04-08 22:47:00,
2013-04-08 18:48:00,47.4,42.5,29.83,WNW,296,6.0,21.0,83,0.00,,---,0.15,VWS V14.00,2013-04-08 22:48:00,
2013-04-08 18:51:00,47.4,42.5,29.83,West,269,5.0,21.0,83,0.00,,---,0.15,VWS V14.00,2013-04-08 22:51:00,
2013-04-08 18:52:00,47.4,42.5,29.83,WNW,292,8.0,21.0,83,0.00,,---,0.15,VWS V14.00,2013-04-08 22:52:00,
2013-04-08 18:53:00,47.3,42.4,29.83,NW,317,4.0,21.0,83,0.00,,---,0.15,VWS V14.00,2013-04-08 22:53:00,
2013-04-08 18:55:00,47.2,42.3,29.83,West,275,12.0,21.0,83,0.00,,---,0.15,VWS V14.00,2013-04-08 22:55:00,
2013-04-08 18:57:00,47.1,42.5,29.84,WNW,294,8.0,21.0,84,0.00,,---,0.15,VWS V14.00,2013-04-08 22:57:00,
2013-04-08 18:59:00,47.0,42.4,29.83,WNW,293,10.0,17.0,84,0.00,,---,0.15,VWS V14.00,2013-04-08 22:59:00,
2013-04-08 19:01:00,46.9,42.3,29.83,WNW,296,10.0,19.0,84,0.00,,---,0.15,VWS V14.00,2013-04-08 23:01:00,
2013-04-08 19:04:00,46.8,42.2,29.84,NW,307,4.0,19.0,84,0.00,,---,0.15,VWS V14.00,2013-04-08 23:04:00,
2013-04-08 19:05:00,46.8,42.5,29.84,West,264,10.0,19.0,85,0.00,,---,0.15,VWS V14.00,2013-04-08 23:05:00,
2013-04-08 19:08:00,46.9,42.6,29.84,West,279,17.0,19.0,85,0.00,,---,0.15,VWS V14.00,2013-04-08 23:08:00,
2013-04-08 19:11:00,46.7,42.1,29.84,WNW,292,11.0,19.0,84,0.00,,---,0.15,VWS V14.00,2013-04-08 23:11:00,
2013-04-08 19:12:00,46.7,42.4,29.84,NW,311,4.0,19.0,85,0.00,,---,0.15,VWS V14.00,2013-04-08 23:12:00,
2013-04-08 19:14:00,46.6,42.0,29.84,NW,304,11.0,19.0,84,0.00,,---,0.15,VWS V14.00,2013-04-08 23:14:00,
2013-04-08 19:15:00,46.5,41.9,29.84,NW,317,12.0,19.0,84,0.00,,---,0.15,VWS V14.00,2013-04-08 23:15:00,
2013-04-08 19:16:00,46.5,42.2,29.84,NW,322,4.0,19.0,85,0.00,,---,0.15,VWS V14.00,2013-04-08 23:16:00,
2013-04-08 19:19:00,46.4,42.1,29.84,WNW,289,3.0,19.0,85,0.00,,---,0.15,VWS V14.00,2013-04-08 23:19:00,
2013-04-08 19:21:00,46.4,42.1,29.84,NNW,338,7.0,19.0,85,0.00,,---,0.15,VWS V14.00,2013-04-08 23:21:00,
2013-04-08 19:22:00,46.4,42.1,29.84,NW,316,4.0,19.0,85,0.00,,---,0.15,VWS V14.00,2013-04-08 23:22:00,
2013-04-08 19:26:00,46.4,42.1,29.85,WSW,252,3.0,19.0,85,0.00,,---,0.15,VWS V14.00,2013-04-08 23:26:00,
2013-04-08 19:27:00,46.4,42.1,29.85,NNW,329,3.0,19.0,85,0.00,,---,0.15,VWS V14.00,2013-04-08 23:27:00,
2013-04-08 19:28:00,46.4,42.1,29.85,NW,307,6.0,19.0,85,0.00,,---,0.15,VWS V14.00,2013-04-08 23:28:00,
2013-04-08 19:29:00,46.4,42.1,29.85,WNW,291,2.0,9.0,85,0.00,,---,0.15,VWS V14.00,2013-04-08 23:29:00,
2013-04-08 19:31:00,46.3,42.0,29.85,NW,319,15.0,15.0,85,0.00,,---,0.15,VWS V14.00,2013-04-08 23:31:00,
2013-04-08 19:33:00,46.2,42.0,29.85,WNW,297,9.0,17.0,85,0.00,,---,0.15,VWS V14.00,2013-04-08 23:33:00,
2013-04-08 19:35:00,46.0,41.8,29.85,WNW,298,11.0,17.0,85,0.00,,---,0.15,VWS V14.00,2013-04-08 23:35:00,
2013-04-08 19:37:00,45.9,41.7,29.86,WNW,301,9.0,17.0,85,0.00,,---,0.15,VWS V14.00,2013-04-08 23:37:00,
2013-04-08 19:38:00,45.8,41.5,29.86,WNW,288,7.0,17.0,85,0.00,,---,0.15,VWS V14.00,2013-04-08 23:38:00,
2013-04-08 19:41:00,45.7,41.5,29.86,NW,321,6.0,17.0,85,0.00,,---,0.15,VWS V14.00,2013-04-08 23:41:00,
2013-04-08 19:42:00,45.7,41.5,29.86,NW,313,6.0,17.0,85,0.00,,---,0.15,VWS V14.00,2013-04-08 23:42:00,
2013-04-08 19:43:00,45.7,41.8,29.86,WNW,302,8.0,17.0,86,0.00,,---,0.15,VWS V14.00,2013-04-08 23:43:00,
2013-04-08 19:47:00,45.6,41.7,29.86,WNW,291,11.0,18.0,86,0.00,,---,0.15,VWS V14.00,2013-04-08 23:47:00,
2013-04-08 19:48:00,45.5,41.6,29.86,NW,313,6.0,18.0,86,0.00,,---,0.15,VWS V14.00,2013-04-08 23:48:00,
2013-04-08 19:51:00,45.4,41.5,29.86,NW,311,7.0,18.0,86,0.00,,---,0.15,VWS V14.00,2013-04-08 23:51:00,
2013-04-08 19:52:00,45.4,41.5,29.87,WNW,285,10.0,18.0,86,0.00,,---,0.15,VWS V14.00,2013-04-08 23:52:00,
2013-04-08 19:54:00,45.3,41.4,29.87,NW,326,6.0,18.0,86,0.00,,---,0.15,VWS V14.00,2013-04-08 23:54:00,
2013-04-08 19:59:00,45.0,41.1,29.86,NW,319,10.0,15.0,86,0.00,,---,0.15,VWS V14.00,2013-04-08 23:59:00,
2013-04-08 20:00:00,45.0,41.1,29.86,NW,323,9.0,15.0,86,0.00,,---,0.15,VWS V14.00,2013-04-09 00:00:00,
2013-04-08 20:01:00,44.9,41.0,29.86,NW,321,5.0,15.0,86,0.00,,---,0.15,VWS V14.00,2013-04-09 00:01:00,
2013-04-08 20:04:00,44.8,41.2,29.87,WSW,249,3.0,15.0,87,0.00,,---,0.15,VWS V14.00,2013-04-09 00:04:00,
2013-04-08 20:05:00,44.7,41.1,29.87,WSW,248,2.0,15.0,87,0.00,,---,0.15,VWS V14.00,2013-04-09 00:05:00,
2013-04-08 20:10:00,44.7,41.1,29.87,WNW,294,7.0,15.0,87,0.00,,---,0.15,VWS V14.00,2013-04-09 00:10:00,
2013-04-08 20:12:00,44.6,41.0,29.88,WNW,300,11.0,15.0,87,0.00,,---,0.15,VWS V14.00,2013-04-09 00:12:00,
2013-04-08 20:13:00,44.6,41.0,29.88,WNW,291,3.0,15.0,87,0.00,,---,0.15,VWS V14.00,2013-04-09 00:13:00,
2013-04-08 20:15:00,44.6,41.0,29.88,NW,306,6.0,15.0,87,0.00,,---,0.15,VWS V14.00,2013-04-09 00:15:00,
2013-04-08 20:17:00,44.5,40.9,29.88,WNW,302,3.0,15.0,87,0.00,,---,0.15,VWS V14.00,2013-04-09 00:17:00,
2013-04-08 20:18:00,44.5,41.2,29.88,WNW,303,1.0,15.0,88,0.00,,---,0.15,VWS V14.00,2013-04-09 00:18:00,
2013-04-08 20:19:00,44.5,41.2,29.88,NW,304,0.0,15.0,88,0.00,,---,0.15,VWS V14.00,2013-04-09 00:19:00,
2013-04-08 20:22:00,44.5,41.2,29.88,NNW,327,2.0,15.0,88,0.00,,---,0.15,VWS V14.00,2013-04-09 00:22:00,
2013-04-08 20:23:00,44.5,41.2,29.88,North,355,3.0,15.0,88,0.00,,---,0.15,VWS V14.00,2013-04-09 00:23:00,
2013-04-08 20:25:00,44.4,41.1,29.89,NW,304,3.0,15.0,88,0.00,,---,0.15,VWS V14.00,2013-04-09 00:25:00,
2013-04-08 20:28:00,44.3,41.0,29.89,NNW,342,7.0,15.0,88,0.00,,---,0.15,VWS V14.00,2013-04-09 00:28:00,
2013-04-08 20:30:00,44.2,40.9,29.89,NNW,339,5.0,12.0,88,0.00,,---,0.15,VWS V14.00,2013-04-09 00:30:00,
2013-04-08 20:32:00,44.1,40.8,29.89,NNW,344,2.0,12.0,88,0.00,,---,0.15,VWS V14.00,2013-04-09 00:32:00,
2013-04-08 20:33:00,44.0,40.7,29.89,NNW,345,4.0,12.0,88,0.00,,---,0.15,VWS V14.00,2013-04-09 00:33:00,
2013-04-08 20:34:00,44.0,40.7,29.89,NNW,340,3.0,12.0,88,0.00,,---,0.15,VWS V14.00,2013-04-09 00:34:00,
2013-04-08 20:37:00,44.0,41.0,29.90,West,275,4.0,12.0,89,0.00,,---,0.15,VWS V14.00,2013-04-09 00:37:00,
2013-04-08 20:39:00,44.0,41.0,29.90,NW,325,5.0,12.0,89,0.00,,---,0.15,VWS V14.00,2013-04-09 00:39:00,
2013-04-08 20:43:00,43.9,40.9,29.90,West,281,5.0,12.0,89,0.00,,---,0.15,VWS V14.00,2013-04-09 00:43:00,
2013-04-08 20:44:00,43.9,40.9,29.90,WNW,300,4.0,12.0,89,0.00,,---,0.15,VWS V14.00,2013-04-09 00:44:00,
2013-04-08 20:46:00,43.8,40.8,29.90,NNW,346,2.0,12.0,89,0.00,,---,0.15,VWS V14.00,2013-04-09 00:46:00,
2013-04-08 20:48:00,43.8,40.8,29.90,NW,308,2.0,12.0,89,0.00,,---,0.15,VWS V14.00,2013-04-09 00:48:00,
2013-04-08 20:49:00,43.8,40.8,29.91,NW,312,11.0,13.0,89,0.00,,---,0.15,VWS V14.00,2013-04-09 00:49:00,
2013-04-08 20:50:00,43.7,40.7,29.91,WNW,284,3.0,13.0,89,0.00,,---,0.15,VWS V14.00,2013-04-09 00:50:00,
2013-04-08 20:52:00,43.6,40.6,29.90,NNW,338,8.0,13.0,89,0.00,,---,0.15,VWS V14.00,2013-04-09 00:52:00,
2013-04-08 20:53:00,43.6,40.6,29.90,NW,313,4.0,13.0,89,0.00,,---,0.15,VWS V14.00,2013-04-09 00:53:00,
2013-04-08 20:55:00,43.5,40.5,29.90,NW,319,5.0,13.0,89,0.00,,---,0.15,VWS V14.00,2013-04-09 00:55:00,
2013-04-08 20:56:00,43.4,40.4,29.90,NW,309,3.0,13.0,89,0.00,,---,0.15,VWS V14.00,2013-04-09 00:56:00,
2013-04-08 20:57:00,43.4,40.4,29.91,NW,321,2.0,13.0,89,0.00,,---,0.15,VWS V14.00,2013-04-09 00:57:00,
2013-04-08 20:59:00,43.3,40.3,29.91,NNW,336,5.0,7.0,89,0.00,,---,0.15,VWS V14.00,2013-04-09 00:59:00,
2013-04-08 21:00:00,43.3,40.3,29.91,NW,321,2.0,7.0,89,0.00,,---,0.15,VWS V14.00,2013-04-09 01:00:00,
2013-04-08 21:02:00,43.2,40.2,29.91,NW,307,2.0,7.0,89,0.00,,---,0.15,VWS V14.00,2013-04-09 01:02:00,
2013-04-08 21:03:00,43.2,40.2,29.91,WNW,303,3.0,7.0,89,0.00,,---,0.15,VWS V14.00,2013-04-09 01:03:00,
2013-04-08 21:04:00,43.1,40.1,29.91,WNW,302,3.0,7.0,89,0.00,,---,0.15,VWS V14.00,2013-04-09 01:04:00,
2013-04-08 21:05:00,43.2,40.2,29.91,NW,304,3.0,7.0,89,0.00,,---,0.15,VWS V14.00,2013-04-09 01:05:00,
2013-04-08 21:07:00,43.1,40.1,29.91,WNW,297,3.0,7.0,89,0.00,,---,0.15,VWS V14.00,2013-04-09 01:07:00,
2013-04-08 21:11:00,43.1,40.1,29.91,WNW,300,4.0,7.0,89,0.00,,---,0.15,VWS V14.00,2013-04-09 01:11:00,
2013-04-08 21:12:00,43.0,40.0,29.91,NNW,330,1.0,7.0,89,0.00,,---,0.15,VWS V14.00,2013-04-09 01:12:00,
2013-04-08 21:16:00,42.9,40.2,29.92,NNW,337,4.0,7.0,90,0.00,,---,0.15,VWS V14.00,2013-04-09 01:16:00,
2013-04-08 21:17:00,42.9,40.2,29.92,NNW,334,1.0,7.0,90,0.00,,---,0.15,VWS V14.00,2013-04-09 01:17:00,
2013-04-08 21:20:00,42.8,40.1,29.92,NNW,346,5.0,10.0,90,0.00,,---,0.15,VWS V14.00,2013-04-09 01:20:00,
2013-04-08 21:21:00,42.7,40.0,29.92,NNW,346,5.0,10.0,90,0.00,,---,0.15,VWS V14.00,2013-04-09 01:21:00,
2013-04-08 21:22:00,42.7,40.0,29.92,NNW,344,4.0,10.0,90,0.00,,---,0.15,VWS V14.00,2013-04-09 01:22:00,
2013-04-08 21:25:00,42.6,39.9,29.92,NNW,340,2.0,10.0,90,0.00,,---,0.15,VWS V14.00,2013-04-09 01:25:00,
2013-04-08 21:27:00,42.5,39.8,29.92,NW,311,3.0,10.0,90,0.00,,---,0.15,VWS V14.00,2013-04-09 01:27:00,
2013-04-08 21:29:00,42.5,39.8,29.92,North,360,5.0,5.0,90,0.00,,---,0.15,VWS V14.00,2013-04-09 01:29:00,
2013-04-08 21:30:00,42.5,39.8,29.92,North,355,4.0,5.0,90,0.00,,---,0.15,VWS V14.00,2013-04-09 01:30:00,
2013-04-08 21:33:00,42.5,39.8,29.92,NNW,340,6.0,6.0,90,0.00,,---,0.15,VWS V14.00,2013-04-09 01:33:00,
2013-04-08 21:35:00,42.5,39.8,29.92,NNW,331,1.0,6.0,90,0.00,,---,0.15,VWS V14.00,2013-04-09 01:35:00,
2013-04-08 21:36:00,42.5,39.8,29.92,NNW,330,3.0,6.0,90,0.00,,---,0.15,VWS V14.00,2013-04-09 01:36:00,
2013-04-08 21:37:00,42.5,39.8,29.92,NNW,333,4.0,6.0,90,0.00,,---,0.15,VWS V14.00,2013-04-09 01:37:00,
2013-04-08 21:38:00,42.5,39.8,29.92,NNW,334,2.0,6.0,90,0.00,,---,0.15,VWS V14.00,2013-04-09 01:38:00,
2013-04-08 21:42:00,42.5,40.1,29.92,NNW,346,3.0,6.0,91,0.00,,---,0.15,VWS V14.00,2013-04-09 01:42:00,
2013-04-08 21:43:00,42.5,40.1,29.92,NNW,346,2.0,6.0,91,0.00,,---,0.15,VWS V14.00,2013-04-09 01:43:00,
2013-04-08 21:44:00,42.5,40.1,29.92,NNW,339,3.0,6.0,91,0.00,,---,0.15,VWS V14.00,2013-04-09 01:44:00,
2013-04-08 21:49:00,42.5,40.1,29.93,NNW,346,1.0,6.0,91,0.00,,---,0.15,VWS V14.00,2013-04-09 01:49:00,
2013-04-08 21:51:00,42.5,40.1,29.93,NNW,329,4.0,6.0,91,0.00,,---,0.15,VWS V14.00,2013-04-09 01:51:00,
2013-04-08 21:52:00,42.5,40.1,29.93,North,10,2.0,6.0,91,0.00,,---,0.15,VWS V14.00,2013-04-09 01:52:00,
2013-04-08 21:53:00,42.5,40.1,29.93,NNW,345,2.0,6.0,91,0.00,,---,0.15,VWS V14.00,2013-04-09 01:53:00,
2013-04-08 21:55:00,42.5,40.1,29.93,NW,315,4.0,6.0,91,0.00,,---,0.15,VWS V14.00,2013-04-09 01:55:00,
2013-04-08 21:57:00,42.5,40.1,29.93,NNW,338,4.0,7.0,91,0.00,,---,0.15,VWS V14.00,2013-04-09 01:57:00,
2013-04-08 21:58:00,42.5,40.1,29.93,NNW,328,3.0,7.0,91,0.00,,---,0.15,VWS V14.00,2013-04-09 01:58:00,
2013-04-08 21:59:00,42.5,40.1,29.93,NNW,327,2.0,2.0,91,0.00,,---,0.15,VWS V14.00,2013-04-09 01:59:00,
2013-04-08 22:00:00,42.5,40.1,29.93,NNW,333,3.0,4.0,91,0.00,,---,0.15,VWS V14.00,2013-04-09 02:00:00,
2013-04-08 22:03:00,42.5,40.1,29.93,NNW,337,4.0,6.0,91,0.00,,---,0.15,VWS V14.00,2013-04-09 02:03:00,
2013-04-08 22:04:00,42.5,40.1,29.94,NNW,335,2.0,6.0,91,0.00,,---,0.15,VWS V14.00,2013-04-09 02:04:00,
2013-04-08 22:06:00,42.5,40.1,29.94,NW,325,2.0,6.0,91,0.00,,---,0.15,VWS V14.00,2013-04-09 02:06:00,
2013-04-08 22:07:00,42.5,40.1,29.94,NW,326,6.0,6.0,91,0.00,,---,0.15,VWS V14.00,2013-04-09 02:07:00,
2013-04-08 22:08:00,42.5,40.1,29.94,NNW,346,5.0,6.0,91,0.00,,---,0.15,VWS V14.00,2013-04-09 02:08:00,
2013-04-08 22:10:00,42.4,40.0,29.94,NNW,334,7.0,7.0,91,0.00,,---,0.15,VWS V14.00,2013-04-09 02:10:00,
2013-04-08 22:13:00,42.4,40.0,29.94,NNW,342,2.0,8.0,91,0.00,,---,0.15,VWS V14.00,2013-04-09 02:13:00,
2013-04-08 22:15:00,42.3,39.9,29.94,North,349,2.0,8.0,91,0.00,,---,0.15,VWS V14.00,2013-04-09 02:15:00,
2013-04-08 22:17:00,42.3,39.9,29.94,North,349,2.0,8.0,91,0.00,,---,0.15,VWS V14.00,2013-04-09 02:17:00,
2013-04-08 22:20:00,42.3,40.2,29.94,NNW,347,2.0,8.0,92,0.00,,---,0.15,VWS V14.00,2013-04-09 02:20:00,
2013-04-08 22:22:00,42.3,40.2,29.94,North,355,3.0,8.0,92,0.00,,---,0.15,VWS V14.00,2013-04-09 02:22:00,
2013-04-08 22:23:00,42.3,40.2,29.94,North,355,2.0,8.0,92,0.00,,---,0.15,VWS V14.00,2013-04-09 02:23:00,
2013-04-08 22:25:00,42.3,40.2,29.94,North,350,2.0,8.0,92,0.00,,---,0.15,VWS V14.00,2013-04-09 02:25:00,
2013-04-08 22:27:00,42.3,40.2,29.94,North,349,1.0,8.0,92,0.00,,---,0.15,VWS V14.00,2013-04-09 02:27:00,
2013-04-08 22:28:00,42.3,40.2,29.94,North,349,2.0,8.0,92,0.00,,---,0.15,VWS V14.00,2013-04-09 02:28:00,
2013-04-08 22:33:00,42.3,40.2,29.94,North,349,3.0,3.0,92,0.00,,---,0.15,VWS V14.00,2013-04-09 02:33:00,
2013-04-08 22:34:00,42.2,40.0,29.94,NNE,13,6.0,6.0,92,0.00,,---,0.15,VWS V14.00,2013-04-09 02:34:00,
2013-04-08 22:36:00,42.1,40.0,29.94,North,360,1.0,6.0,92,0.00,,---,0.15,VWS V14.00,2013-04-09 02:36:00,
2013-04-08 22:40:00,42.1,40.0,29.94,North,355,3.0,6.0,92,0.00,,---,0.15,VWS V14.00,2013-04-09 02:40:00,
2013-04-08 22:41:00,42.0,39.8,29.94,North,355,4.0,6.0,92,0.00,,---,0.15,VWS V14.00,2013-04-09 02:41:00,
2013-04-08 22:42:00,42.0,39.8,29.94,NNW,339,5.0,6.0,92,0.00,,---,0.15,VWS V14.00,2013-04-09 02:42:00,
2013-04-08 22:45:00,42.0,39.8,29.93,North,360,4.0,7.0,92,0.00,,---,0.15,VWS V14.00,2013-04-09 02:45:00,
2013-04-08 22:46:00,42.1,40.0,29.93,North,360,5.0,7.0,92,0.00,,---,0.15,VWS V14.00,2013-04-09 02:46:00,
2013-04-08 22:47:00,42.1,40.0,29.93,North,360,9.0,9.0,92,0.00,,---,0.15,VWS V14.00,2013-04-09 02:47:00,
2013-04-08 22:52:00,42.2,40.0,29.94,North,351,2.0,9.0,92,0.00,,---,0.15,VWS V14.00,2013-04-09 02:52:00,
2013-04-08 22:53:00,42.1,40.0,29.94,North,350,1.0,9.0,92,0.00,,---,0.15,VWS V14.00,2013-04-09 02:53:00,
2013-04-08 22:57:00,42.1,40.0,29.94,North,350,2.0,9.0,92,0.00,,---,0.15,VWS V14.00,2013-04-09 02:57:00,
2013-04-08 22:58:00,42.1,40.0,29.94,North,349,1.0,9.0,92,0.00,,---,0.15,VWS V14.00,2013-04-09 02:58:00,
2013-04-08 22:59:00,42.2,40.0,29.94,NNE,17,4.0,5.0,92,0.00,,---,0.15,VWS V14.00,2013-04-09 02:59:00,
2013-04-08 23:03:00,42.4,40.5,29.94,NNE,14,1.0,5.0,93,0.00,,---,0.15,VWS V14.00,2013-04-09 03:03:00,
2013-04-08 23:04:00,42.4,40.5,29.94,North,11,3.0,5.0,93,0.00,,---,0.15,VWS V14.00,2013-04-09 03:04:00,
2013-04-08 23:05:00,42.4,40.5,29.94,North,9,3.0,5.0,93,0.00,,---,0.15,VWS V14.00,2013-04-09 03:05:00,
2013-04-08 23:08:00,42.2,40.3,29.95,North,9,1.0,5.0,93,0.00,,---,0.15,VWS V14.00,2013-04-09 03:08:00,
2013-04-08 23:10:00,42.2,40.3,29.95,NNW,340,1.0,5.0,93,0.00,,---,0.15,VWS V14.00,2013-04-09 03:10:00,
2013-04-08 23:14:00,42.0,40.1,29.95,NNW,340,5.0,5.0,93,0.00,,---,0.15,VWS V14.00,2013-04-09 03:14:00,
2013-04-08 23:15:00,42.0,40.1,29.95,NNW,340,2.0,5.0,93,0.00,,---,0.15,VWS V14.00,2013-04-09 03:15:00,
2013-04-08 23:16:00,41.9,40.0,29.95,NNW,341,1.0,5.0,93,0.00,,---,0.15,VWS V14.00,2013-04-09 03:16:00,
2013-04-08 23:19:00,41.8,39.9,29.95,North,355,1.0,6.0,93,0.00,,---,0.15,VWS V14.00,2013-04-09 03:19:00,
2013-04-08 23:21:00,41.8,39.9,29.96,NNW,348,4.0,6.0,93,0.00,,---,0.15,VWS V14.00,2013-04-09 03:21:00,
2013-04-08 23:22:00,41.8,39.9,29.96,NNW,347,3.0,6.0,93,0.00,,---,0.15,VWS V14.00,2013-04-09 03:22:00,
2013-04-08 23:24:00,41.8,39.9,29.96,NNW,346,4.0,6.0,93,0.00,,---,0.15,VWS V14.00,2013-04-09 03:24:00,
2013-04-08 23:26:00,41.7,39.8,29.96,NNW,345,4.0,6.0,93,0.00,,---,0.15,VWS V14.00,2013-04-09 03:26:00,
2013-04-08 23:27:00,41.7,39.8,29.96,NNW,345,4.0,6.0,93,0.00,,---,0.15,VWS V14.00,2013-04-09 03:27:00,
2013-04-08 23:28:00,41.7,39.8,29.96,NNW,346,2.0,6.0,93,0.00,,---,0.15,VWS V14.00,2013-04-09 03:28:00,
2013-04-08 23:31:00,41.6,39.7,29.96,NNW,343,2.0,4.0,93,0.00,,---,0.15,VWS V14.00,2013-04-09 03:31:00,
2013-04-08 23:32:00,41.7,39.8,29.96,NNW,343,2.0,4.0,93,0.00,,---,0.15,VWS V14.00,2013-04-09 03:32:00,
2013-04-08 23:33:00,41.7,39.8,29.96,NNW,343,2.0,4.0,93,0.00,,---,0.15,VWS V14.00,2013-04-09 03:33:00,
2013-04-08 23:34:00,41.7,39.8,29.96,NNW,343,2.0,4.0,93,0.00,,---,0.15,VWS V14.00,2013-04-09 03:34:00,
2013-04-08 23:38:00,41.7,39.8,29.96,NNW,342,2.0,4.0,93,0.00,,---,0.15,VWS V14.00,2013-04-09 03:38:00,
2013-04-08 23:39:00,41.6,39.7,29.96,NNW,342,4.0,5.0,93,0.00,,---,0.15,VWS V14.00,2013-04-09 03:39:00,
2013-04-08 23:40:00,41.6,39.7,29.96,NNW,343,3.0,5.0,93,0.00,,---,0.15,VWS V14.00,2013-04-09 03:40:00,
2013-04-08 23:41:00,41.6,39.7,29.96,NNW,343,3.0,5.0,93,0.00,,---,0.15,VWS V14.00,2013-04-09 03:41:00,
2013-04-08 23:43:00,41.6,39.7,29.96,NNW,343,2.0,5.0,93,0.00,,---,0.15,VWS V14.00,2013-04-09 03:43:00,
2013-04-08 23:46:00,41.7,39.8,29.96,NNW,343,0.0,5.0,93,0.00,,---,0.15,VWS V14.00,2013-04-09 03:46:00,
2013-04-08 23:49:00,41.8,39.9,29.96,NNW,345,2.0,5.0,93,0.00,,---,0.15,VWS V14.00,2013-04-09 03:49:00,
2013-04-08 23:50:00,41.9,40.0,29.96,NNW,346,2.0,5.0,93,0.00,,---,0.15,VWS V14.00,2013-04-09 03:50:00,
2013-04-08 23:53:00,42.0,40.1,29.96,North,355,6.0,7.0,93,0.00,,---,0.15,VWS V14.00,2013-04-09 03:53:00,
2013-04-08 23:55:00,41.9,40.0,29.96,North,355,4.0,7.0,93,0.00,,---,0.15,VWS V14.00,2013-04-09 03:55:00,
2013-04-08 23:56:00,41.9,40.0,29.96,North,5,4.0,7.0,93,0.00,,---,0.15,VWS V14.00,2013-04-09 03:56:00,
2013-04-08 23:57:00,41.9,40.0,29.96,North,360,2.0,7.0,93,0.00,,---,0.15,VWS V14.00,2013-04-09 03:57:00,
2013-04-08 23:59:00,41.8,39.9,29.96,North,360,1.0,4.0,93,0.00,,---,0.00,VWS V14.00,2013-04-09 03:59:00,